BLKT28 YPDN-YPDN
Flight info
| Callsign | BLKT28 |
|---|---|
| Flight time | 8h 29m |
| Altitude | 38000 |
| Route | N0468F380 DCT DN J61 IKUMA/N0467F390 DCT 114541S1243853E 122904S1231945E 123948S1203305E 152410S1202654E 174039S1185900E 203550S1155055E 213808S1142447E 204631S1131057E 170435S1173954E 151309S1184549E 130103S1185808E 130428S1230651E 105623S1270039E 113235S1271906E 133242S1232241E 141521S1234201E 121229S1273745E 131529S1280527E 114210S1314338E 094536S1333740E 085610S1314417E 090438S1301041E DCT AVMAN M768 ANUPA DCT |
| Aircraft | P8/M-SADE2E3FGHIJ1J3J4J7M3P2RWXYZ/LB1D1 |
Departure
| Time | 2026-05-07 01:27 |
|---|---|
| Airport | Darwin International Airport / RAAF Darwin (YPDN) |
Arrival
| Time | 2026-05-07 09:56 |
|---|---|
| Airport | Darwin International Airport / RAAF Darwin (YPDN) |
| Time | Latitude | Longitude | Altitude | Speed | Heading |
|---|---|---|---|---|---|
| 2026-05-07 01:15 | -12.41553 | 130.86727 | 88 ft | 0 kts | 0° |
| 2026-05-07 01:21 | -12.41550 | 130.86727 | 92 ft | 2 kts | 360° |
| 2026-05-07 01:21 | -12.41520 | 130.86738 | 90 ft | 7 kts | 49° |
| 2026-05-07 01:22 | -12.41511 | 130.86785 | 89 ft | 7 kts | 87° |
| 2026-05-07 01:22 | -12.41510 | 130.86832 | 89 ft | 7 kts | 89° |
| 2026-05-07 01:22 | -12.41509 | 130.86879 | 89 ft | 7 kts | 90° |
| 2026-05-07 01:22 | -12.41499 | 130.86924 | 91 ft | 7 kts | 53° |
| 2026-05-07 01:23 | -12.41442 | 130.86937 | 89 ft | 11 kts | 0° |
| 2026-05-07 01:23 | -12.41355 | 130.86901 | 90 ft | 17 kts | 310° |
| 2026-05-07 01:23 | -12.41311 | 130.86792 | 91 ft | 9 kts | 290° |
| 2026-05-07 01:23 | -12.41302 | 130.86766 | 89 ft | 0 kts | 289° |
| 2026-05-07 01:24 | -12.41301 | 130.86764 | 89 ft | 1 kts | 289° |
| 2026-05-07 01:24 | -12.41283 | 130.86711 | 90 ft | 13 kts | 290° |
| 2026-05-07 01:24 | -12.41253 | 130.86623 | 89 ft | 13 kts | 289° |
| 2026-05-07 01:24 | -12.41220 | 130.86538 | 89 ft | 13 kts | 299° |
| 2026-05-07 01:25 | -12.41157 | 130.86480 | 89 ft | 12 kts | 340° |
| 2026-05-07 01:25 | -12.41074 | 130.86486 | 89 ft | 12 kts | 19° |
| 2026-05-07 01:25 | -12.40999 | 130.86515 | 91 ft | 10 kts | 20° |
| 2026-05-07 01:25 | -12.40952 | 130.86558 | 89 ft | 9 kts | 78° |
| 2026-05-07 01:26 | -12.40958 | 130.86589 | 89 ft | 1 kts | 108° |
| 2026-05-07 01:26 | -12.40998 | 130.86711 | 89 ft | 50 kts | 109° |
| 2026-05-07 01:26 | -12.41197 | 130.87295 | 89 ft | 121 kts | 109° |
| 2026-05-07 01:26 | -12.41524 | 130.88263 | 375 ft | 152 kts | 110° |
| 2026-05-07 01:27 | -12.41849 | 130.89237 | 1327 ft | 143 kts | 110° |
| 2026-05-07 01:27 | -12.42161 | 130.90179 | 2149 ft | 146 kts | 110° |
| 2026-05-07 01:27 | -12.42523 | 130.91278 | 2492 ft | 180 kts | 108° |
| 2026-05-07 01:27 | -12.42500 | 130.92651 | 2698 ft | 214 kts | 74° |
| 2026-05-07 01:28 | -12.41619 | 130.93964 | 3026 ft | 243 kts | 47° |
| 2026-05-07 01:28 | -12.40033 | 130.94793 | 3491 ft | 270 kts | 18° |
| 2026-05-07 01:28 | -12.38129 | 130.94855 | 4402 ft | 278 kts | 352° |
| 2026-05-07 01:28 | -12.36351 | 130.94084 | 5421 ft | 283 kts | 324° |
| 2026-05-07 01:29 | -12.35053 | 130.92562 | 6224 ft | 291 kts | 300° |
| 2026-05-07 01:29 | -12.34128 | 130.90703 | 7061 ft | 294 kts | 295° |
| 2026-05-07 01:29 | -12.33282 | 130.88810 | 7983 ft | 292 kts | 294° |
| 2026-05-07 01:29 | -12.32454 | 130.86912 | 8924 ft | 290 kts | 294° |
| 2026-05-07 01:30 | -12.31632 | 130.85031 | 9827 ft | 290 kts | 294° |
| 2026-05-07 01:30 | -12.30796 | 130.83132 | 10479 ft | 298 kts | 294° |
| 2026-05-07 01:30 | -12.29904 | 130.81119 | 10666 ft | 322 kts | 294° |
| 2026-05-07 01:30 | -12.28954 | 130.78986 | 10830 ft | 344 kts | 294° |
| 2026-05-07 01:31 | -12.27933 | 130.76707 | 11107 ft | 359 kts | 294° |
| 2026-05-07 01:31 | -12.26879 | 130.74366 | 11691 ft | 363 kts | 294° |
| 2026-05-07 01:31 | -12.25821 | 130.72021 | 12407 ft | 363 kts | 294° |
| 2026-05-07 01:31 | -12.24761 | 130.69673 | 13136 ft | 364 kts | 294° |
| 2026-05-07 01:32 | -12.23697 | 130.67323 | 13822 ft | 366 kts | 294° |
| 2026-05-07 01:32 | -12.22626 | 130.64955 | 14392 ft | 368 kts | 294° |
| 2026-05-07 01:32 | -12.21544 | 130.62563 | 14961 ft | 372 kts | 294° |
| 2026-05-07 01:32 | -12.20459 | 130.60169 | 15632 ft | 368 kts | 294° |
| 2026-05-07 01:33 | -12.19395 | 130.57819 | 15921 ft | 362 kts | 294° |
| 2026-05-07 01:33 | -12.18321 | 130.55450 | 15997 ft | 374 kts | 294° |
| 2026-05-07 01:33 | -12.17226 | 130.53033 | 16008 ft | 383 kts | 294° |
| 2026-05-07 01:33 | -12.16105 | 130.50559 | 15997 ft | 382 kts | 294° |
| 2026-05-07 01:34 | -12.14994 | 130.48109 | 15993 ft | 378 kts | 294° |
| 2026-05-07 01:34 | -12.13895 | 130.45687 | 15993 ft | 375 kts | 294° |
| 2026-05-07 01:34 | -12.12795 | 130.43262 | 15997 ft | 374 kts | 294° |
| 2026-05-07 01:34 | -12.11704 | 130.40858 | 15997 ft | 374 kts | 294° |
| 2026-05-07 01:35 | -12.10606 | 130.38441 | 16001 ft | 375 kts | 294° |
| 2026-05-07 01:35 | -12.09506 | 130.36019 | 16007 ft | 376 kts | 294° |
| 2026-05-07 01:35 | -12.08405 | 130.33595 | 16001 ft | 377 kts | 294° |
| 2026-05-07 01:35 | -12.07298 | 130.31157 | 15997 ft | 378 kts | 294° |
| 2026-05-07 01:36 | -12.06190 | 130.28719 | 15998 ft | 379 kts | 294° |
| 2026-05-07 01:36 | -12.05075 | 130.26267 | 15999 ft | 379 kts | 294° |
| 2026-05-07 01:36 | -12.03977 | 130.23852 | 15998 ft | 380 kts | 294° |
| 2026-05-07 01:36 | -12.02866 | 130.21408 | 15990 ft | 380 kts | 294° |
| 2026-05-07 01:37 | -12.01750 | 130.18957 | 15996 ft | 379 kts | 294° |
| 2026-05-07 01:37 | -12.00639 | 130.16515 | 15994 ft | 379 kts | 294° |
| 2026-05-07 01:37 | -11.99526 | 130.14071 | 15998 ft | 379 kts | 294° |
| 2026-05-07 01:37 | -11.98413 | 130.11626 | 15997 ft | 379 kts | 294° |
| 2026-05-07 01:38 | -11.97302 | 130.09186 | 15991 ft | 379 kts | 294° |
| 2026-05-07 01:38 | -11.96191 | 130.06747 | 15991 ft | 378 kts | 294° |
| 2026-05-07 01:38 | -11.95080 | 130.04308 | 15989 ft | 378 kts | 295° |
| 2026-05-07 01:38 | -11.93971 | 130.01877 | 15993 ft | 378 kts | 294° |
| 2026-05-07 01:39 | -11.92862 | 129.99444 | 15990 ft | 378 kts | 294° |
| 2026-05-07 01:39 | -11.91753 | 129.97012 | 15994 ft | 378 kts | 294° |
| 2026-05-07 01:39 | -11.90643 | 129.94579 | 15996 ft | 378 kts | 294° |
| 2026-05-07 01:39 | -11.89547 | 129.92176 | 15995 ft | 378 kts | 294° |
| 2026-05-07 01:40 | -11.88434 | 129.89738 | 15992 ft | 377 kts | 295° |
| 2026-05-07 01:40 | -11.87325 | 129.87309 | 15992 ft | 377 kts | 295° |
| 2026-05-07 01:40 | -11.86217 | 129.84882 | 15991 ft | 377 kts | 295° |
| 2026-05-07 01:40 | -11.85108 | 129.82455 | 15992 ft | 377 kts | 295° |
| 2026-05-07 01:41 | -11.84000 | 129.80028 | 15992 ft | 377 kts | 295° |
| 2026-05-07 01:41 | -11.82891 | 129.77601 | 15990 ft | 377 kts | 294° |
| 2026-05-07 01:41 | -11.81784 | 129.75177 | 15992 ft | 377 kts | 294° |
| 2026-05-07 01:41 | -11.80674 | 129.72751 | 15988 ft | 377 kts | 295° |
| 2026-05-07 01:42 | -11.79559 | 129.70322 | 15995 ft | 377 kts | 295° |
| 2026-05-07 01:42 | -11.78372 | 129.67929 | 15990 ft | 378 kts | 297° |
| 2026-05-07 01:42 | -11.77133 | 129.65564 | 15989 ft | 377 kts | 298° |
| 2026-05-07 01:42 | -11.75878 | 129.63209 | 15989 ft | 378 kts | 298° |
| 2026-05-07 01:43 | -11.74623 | 129.60859 | 15986 ft | 378 kts | 298° |
| 2026-05-07 01:43 | -11.73367 | 129.58498 | 15985 ft | 378 kts | 298° |
| 2026-05-07 01:43 | -11.72130 | 129.56164 | 15979 ft | 378 kts | 297° |
| 2026-05-07 01:43 | -11.70884 | 129.53805 | 15980 ft | 377 kts | 297° |
| 2026-05-07 01:44 | -11.69638 | 129.51443 | 15981 ft | 377 kts | 297° |
| 2026-05-07 01:44 | -11.68394 | 129.49083 | 15977 ft | 377 kts | 297° |
| 2026-05-07 01:44 | -11.67150 | 129.46720 | 15984 ft | 377 kts | 297° |
| 2026-05-07 01:44 | -11.65912 | 129.44367 | 15985 ft | 377 kts | 297° |
| 2026-05-07 01:45 | -11.64671 | 129.42009 | 15989 ft | 377 kts | 297° |
| 2026-05-07 01:45 | -11.63430 | 129.39651 | 15983 ft | 377 kts | 297° |
| 2026-05-07 01:45 | -11.62202 | 129.37319 | 15980 ft | 377 kts | 297° |
| 2026-05-07 01:45 | -11.60960 | 129.34960 | 15983 ft | 377 kts | 297° |
| 2026-05-07 01:46 | -11.59720 | 129.32605 | 15985 ft | 377 kts | 297° |
| 2026-05-07 01:46 | -11.58475 | 129.30242 | 15978 ft | 377 kts | 297° |
| 2026-05-07 01:46 | -11.57233 | 129.27886 | 15982 ft | 377 kts | 297° |
| 2026-05-07 01:46 | -11.55987 | 129.25522 | 15978 ft | 377 kts | 297° |
| 2026-05-07 01:47 | -11.54746 | 129.23170 | 15979 ft | 377 kts | 297° |
| 2026-05-07 01:47 | -11.53501 | 129.20809 | 15985 ft | 377 kts | 297° |
| 2026-05-07 01:47 | -11.52259 | 129.18455 | 15987 ft | 377 kts | 297° |
| 2026-05-07 01:47 | -11.51014 | 129.16095 | 15980 ft | 377 kts | 297° |
| 2026-05-07 01:48 | -11.49767 | 129.13733 | 15976 ft | 378 kts | 297° |
| 2026-05-07 01:48 | -11.48523 | 129.11378 | 15976 ft | 378 kts | 297° |
| 2026-05-07 01:48 | -11.47293 | 129.09048 | 15974 ft | 378 kts | 297° |
| 2026-05-07 01:48 | -11.46050 | 129.06693 | 15978 ft | 377 kts | 297° |
| 2026-05-07 01:49 | -11.44801 | 129.04330 | 15970 ft | 377 kts | 298° |
| 2026-05-07 01:49 | -11.43554 | 129.01972 | 15974 ft | 377 kts | 298° |
| 2026-05-07 01:49 | -11.42311 | 128.99620 | 15979 ft | 377 kts | 297° |
| 2026-05-07 01:49 | -11.41066 | 128.97264 | 15973 ft | 377 kts | 298° |
| 2026-05-07 01:50 | -11.39823 | 128.94914 | 15978 ft | 377 kts | 298° |
| 2026-05-07 01:50 | -11.38579 | 128.92563 | 15977 ft | 377 kts | 298° |
| 2026-05-07 01:50 | -11.37335 | 128.90210 | 15973 ft | 377 kts | 298° |
| 2026-05-07 01:50 | -11.36091 | 128.87861 | 15971 ft | 377 kts | 298° |
| 2026-05-07 01:51 | -11.34847 | 128.85509 | 15972 ft | 377 kts | 298° |
| 2026-05-07 01:51 | -11.33603 | 128.83160 | 15975 ft | 377 kts | 298° |
| 2026-05-07 01:51 | -11.32375 | 128.80841 | 15969 ft | 377 kts | 298° |
| 2026-05-07 01:51 | -11.31534 | 128.79253 | 15970 ft | 377 kts | 298° |
| 2026-05-07 01:52 | -11.29885 | 128.76141 | 15974 ft | 377 kts | 298° |
| 2026-05-07 01:52 | -11.28638 | 128.73788 | 15974 ft | 377 kts | 298° |
| 2026-05-07 01:52 | -11.27391 | 128.71433 | 15973 ft | 377 kts | 298° |
| 2026-05-07 01:52 | -11.26550 | 128.69845 | 15967 ft | 377 kts | 298° |
| 2026-05-07 01:53 | -11.25301 | 128.67490 | 15967 ft | 377 kts | 298° |
| 2026-05-07 01:53 | -11.23648 | 128.64374 | 15970 ft | 377 kts | 298° |
| 2026-05-07 01:53 | -11.22402 | 128.62028 | 15970 ft | 377 kts | 298° |
| 2026-05-07 01:53 | -11.21557 | 128.60438 | 15971 ft | 377 kts | 298° |
| 2026-05-07 01:54 | -11.20324 | 128.58116 | 15969 ft | 377 kts | 298° |
| 2026-05-07 01:54 | -11.19072 | 128.55761 | 15968 ft | 377 kts | 298° |
| 2026-05-07 01:54 | -11.17823 | 128.53410 | 15972 ft | 377 kts | 298° |
| 2026-05-07 01:54 | -11.16573 | 128.51058 | 15972 ft | 377 kts | 298° |
| 2026-05-07 01:55 | -11.15324 | 128.48708 | 15969 ft | 377 kts | 298° |
| 2026-05-07 01:55 | -11.14073 | 128.46354 | 15972 ft | 377 kts | 298° |
| 2026-05-07 01:55 | -11.12824 | 128.44005 | 15967 ft | 377 kts | 298° |
| 2026-05-07 01:55 | -11.11574 | 128.41654 | 15967 ft | 377 kts | 298° |
| 2026-05-07 01:56 | -11.10341 | 128.39336 | 15970 ft | 377 kts | 298° |
| 2026-05-07 01:56 | -11.09092 | 128.36989 | 15966 ft | 377 kts | 298° |
| 2026-05-07 01:56 | -11.07840 | 128.34635 | 15963 ft | 377 kts | 298° |
| 2026-05-07 01:56 | -11.06592 | 128.32290 | 15972 ft | 377 kts | 298° |
| 2026-05-07 01:57 | -11.05342 | 128.29943 | 15967 ft | 377 kts | 298° |
| 2026-05-07 01:57 | -11.04092 | 128.27596 | 15967 ft | 377 kts | 298° |
| 2026-05-07 01:57 | -11.02842 | 128.25249 | 15966 ft | 377 kts | 298° |
| 2026-05-07 01:57 | -11.01590 | 128.22898 | 15962 ft | 377 kts | 298° |
| 2026-05-07 01:58 | -11.00355 | 128.20582 | 15965 ft | 377 kts | 298° |
| 2026-05-07 01:58 | -10.99107 | 128.18241 | 15963 ft | 376 kts | 298° |
| 2026-05-07 01:58 | -10.97859 | 128.15899 | 15954 ft | 377 kts | 298° |
| 2026-05-07 01:58 | -10.96609 | 128.13555 | 15961 ft | 377 kts | 298° |
| 2026-05-07 01:59 | -10.95360 | 128.11212 | 15967 ft | 377 kts | 298° |
| 2026-05-07 01:59 | -10.94108 | 128.08866 | 15959 ft | 377 kts | 298° |
| 2026-05-07 01:59 | -10.92857 | 128.06521 | 15963 ft | 377 kts | 298° |
| 2026-05-07 01:59 | -10.91605 | 128.04175 | 15962 ft | 376 kts | 298° |
| 2026-05-07 02:00 | -10.90355 | 128.01835 | 15960 ft | 377 kts | 298° |
| 2026-05-07 02:00 | -10.89102 | 127.99487 | 15965 ft | 377 kts | 298° |
| 2026-05-07 02:00 | -10.87850 | 127.97144 | 15961 ft | 377 kts | 298° |
| 2026-05-07 02:00 | -10.86597 | 127.94798 | 15965 ft | 377 kts | 298° |
| 2026-05-07 02:01 | -10.85346 | 127.92457 | 15961 ft | 377 kts | 298° |
| 2026-05-07 02:01 | -10.84092 | 127.90111 | 15962 ft | 377 kts | 298° |
| 2026-05-07 02:01 | -10.82854 | 127.87794 | 15960 ft | 377 kts | 298° |
| 2026-05-07 02:01 | -10.81602 | 127.85452 | 15960 ft | 377 kts | 298° |
| 2026-05-07 02:02 | -10.80348 | 127.83109 | 15955 ft | 377 kts | 298° |
| 2026-05-07 02:02 | -10.79096 | 127.80766 | 15962 ft | 377 kts | 298° |
| 2026-05-07 02:02 | -10.77845 | 127.78429 | 15961 ft | 376 kts | 298° |
| 2026-05-07 02:02 | -10.76593 | 127.76090 | 15952 ft | 376 kts | 298° |
| 2026-05-07 02:03 | -10.75340 | 127.73749 | 15954 ft | 377 kts | 298° |
| 2026-05-07 02:03 | -10.74087 | 127.71408 | 15954 ft | 377 kts | 298° |
| 2026-05-07 02:03 | -10.72828 | 127.69058 | 15960 ft | 378 kts | 298° |
| 2026-05-07 02:03 | -10.71572 | 127.66711 | 15960 ft | 378 kts | 298° |
| 2026-05-07 02:04 | -10.70313 | 127.64361 | 15963 ft | 379 kts | 298° |
| 2026-05-07 02:04 | -10.69050 | 127.62005 | 15958 ft | 379 kts | 298° |
| 2026-05-07 02:04 | -10.67783 | 127.59642 | 15961 ft | 380 kts | 298° |
| 2026-05-07 02:04 | -10.66535 | 127.57313 | 15953 ft | 380 kts | 298° |
| 2026-05-07 02:05 | -10.65268 | 127.54951 | 15950 ft | 380 kts | 298° |
| 2026-05-07 02:05 | -10.64003 | 127.52592 | 15956 ft | 380 kts | 298° |
| 2026-05-07 02:05 | -10.62735 | 127.50228 | 15956 ft | 380 kts | 298° |
| 2026-05-07 02:05 | -10.61468 | 127.47866 | 15949 ft | 380 kts | 298° |
| 2026-05-07 02:06 | -10.60203 | 127.45509 | 15954 ft | 380 kts | 298° |
| 2026-05-07 02:06 | -10.58934 | 127.43145 | 15960 ft | 380 kts | 298° |
| 2026-05-07 02:06 | -10.57668 | 127.40787 | 15949 ft | 380 kts | 298° |
| 2026-05-07 02:06 | -10.56399 | 127.38425 | 15951 ft | 380 kts | 298° |
| 2026-05-07 02:07 | -10.55150 | 127.36099 | 15956 ft | 380 kts | 298° |
| 2026-05-07 02:07 | -10.52615 | 127.31381 | 15950 ft | 380 kts | 298° |
| 2026-05-07 02:07 | -10.51347 | 127.29022 | 15957 ft | 380 kts | 298° |
| 2026-05-07 02:08 | -10.50076 | 127.26657 | 15959 ft | 380 kts | 298° |
| 2026-05-07 02:08 | -10.48807 | 127.24295 | 15956 ft | 381 kts | 298° |
| 2026-05-07 02:08 | -10.47536 | 127.21932 | 15954 ft | 381 kts | 298° |
| 2026-05-07 02:08 | -10.46265 | 127.19570 | 15957 ft | 381 kts | 298° |
| 2026-05-07 02:09 | -10.45005 | 127.17198 | 15948 ft | 381 kts | 295° |
| 2026-05-07 02:09 | -10.44269 | 127.14617 | 15952 ft | 382 kts | 277° |
| 2026-05-07 02:09 | -10.44338 | 127.11953 | 15966 ft | 384 kts | 262° |
| 2026-05-07 02:09 | -10.45158 | 127.09331 | 15958 ft | 388 kts | 246° |
| 2026-05-07 02:10 | -10.46396 | 127.06928 | 15953 ft | 389 kts | 244° |
| 2026-05-07 02:10 | -10.47713 | 127.04527 | 15944 ft | 390 kts | 243° |
| 2026-05-07 02:10 | -10.49051 | 127.02127 | 15945 ft | 390 kts | 243° |
| 2026-05-07 02:10 | -10.50386 | 126.99732 | 15947 ft | 389 kts | 243° |
| 2026-05-07 02:11 | -10.51717 | 126.97325 | 15946 ft | 389 kts | 243° |
| 2026-05-07 02:11 | -10.53034 | 126.94926 | 15951 ft | 389 kts | 243° |
| 2026-05-07 02:11 | -10.54347 | 126.92515 | 15956 ft | 388 kts | 243° |
| 2026-05-07 02:11 | -10.55652 | 126.90113 | 15955 ft | 388 kts | 243° |
| 2026-05-07 02:12 | -10.56957 | 126.87706 | 15952 ft | 388 kts | 243° |
| 2026-05-07 02:12 | -10.58245 | 126.85324 | 15952 ft | 388 kts | 243° |
| 2026-05-07 02:12 | -10.59541 | 126.82922 | 15949 ft | 388 kts | 244° |
| 2026-05-07 02:12 | -10.60842 | 126.80512 | 15951 ft | 388 kts | 244° |
| 2026-05-07 02:13 | -10.62138 | 126.78111 | 15944 ft | 388 kts | 244° |
| 2026-05-07 02:13 | -10.63437 | 126.75706 | 15954 ft | 387 kts | 244° |
| 2026-05-07 02:13 | -10.64732 | 126.73305 | 15954 ft | 388 kts | 244° |
| 2026-05-07 02:13 | -10.66029 | 126.70898 | 15950 ft | 388 kts | 244° |
| 2026-05-07 02:14 | -10.67308 | 126.68525 | 15951 ft | 388 kts | 244° |
| 2026-05-07 02:14 | -10.68604 | 126.66123 | 15951 ft | 388 kts | 244° |
| 2026-05-07 02:14 | -10.69902 | 126.63714 | 15951 ft | 388 kts | 244° |
| 2026-05-07 02:14 | -10.71198 | 126.61310 | 15949 ft | 388 kts | 244° |
| 2026-05-07 02:15 | -10.72495 | 126.58909 | 15952 ft | 387 kts | 244° |
| 2026-05-07 02:15 | -10.73791 | 126.56506 | 15948 ft | 387 kts | 244° |
| 2026-05-07 02:15 | -10.75085 | 126.54106 | 15950 ft | 387 kts | 244° |
| 2026-05-07 02:15 | -10.76380 | 126.51704 | 15952 ft | 386 kts | 244° |
| 2026-05-07 02:16 | -10.77668 | 126.49312 | 15953 ft | 386 kts | 244° |
| 2026-05-07 02:16 | -10.78958 | 126.46912 | 15950 ft | 386 kts | 244° |
| 2026-05-07 02:16 | -10.80231 | 126.44548 | 15952 ft | 386 kts | 244° |
| 2026-05-07 02:16 | -10.81520 | 126.42149 | 15956 ft | 386 kts | 244° |
| 2026-05-07 02:17 | -10.82809 | 126.39751 | 15955 ft | 386 kts | 244° |
| 2026-05-07 02:17 | -10.84099 | 126.37350 | 15955 ft | 386 kts | 244° |
| 2026-05-07 02:17 | -10.85391 | 126.34947 | 15960 ft | 386 kts | 244° |
| 2026-05-07 02:17 | -10.86682 | 126.32549 | 15956 ft | 386 kts | 244° |
| 2026-05-07 02:18 | -10.87969 | 126.30155 | 15955 ft | 386 kts | 244° |
| 2026-05-07 02:18 | -10.89259 | 126.27753 | 15955 ft | 386 kts | 244° |
| 2026-05-07 02:18 | -10.90545 | 126.25359 | 15952 ft | 385 kts | 244° |
| 2026-05-07 02:18 | -10.91831 | 126.22966 | 15951 ft | 385 kts | 244° |
| 2026-05-07 02:19 | -10.93115 | 126.20574 | 15951 ft | 385 kts | 244° |
| 2026-05-07 02:19 | -10.94381 | 126.18214 | 15957 ft | 385 kts | 244° |
| 2026-05-07 02:19 | -10.95664 | 126.15826 | 15957 ft | 385 kts | 244° |
| 2026-05-07 02:19 | -10.96946 | 126.13440 | 15959 ft | 385 kts | 244° |
| 2026-05-07 02:20 | -10.98231 | 126.11044 | 15957 ft | 385 kts | 244° |
| 2026-05-07 02:20 | -10.99516 | 126.08647 | 15951 ft | 385 kts | 244° |
| 2026-05-07 02:20 | -11.00798 | 126.06254 | 15955 ft | 385 kts | 244° |
| 2026-05-07 02:20 | -11.02083 | 126.03856 | 15953 ft | 385 kts | 244° |
| 2026-05-07 02:21 | -11.03366 | 126.01463 | 15951 ft | 385 kts | 244° |
| 2026-05-07 02:21 | -11.04645 | 125.99076 | 15952 ft | 384 kts | 244° |
| 2026-05-07 02:21 | -11.05926 | 125.96684 | 15955 ft | 384 kts | 244° |
| 2026-05-07 02:21 | -11.07203 | 125.94299 | 15954 ft | 384 kts | 243° |
| 2026-05-07 02:22 | -11.08468 | 125.91938 | 15958 ft | 384 kts | 244° |
| 2026-05-07 02:22 | -11.09747 | 125.89549 | 15955 ft | 384 kts | 244° |
| 2026-05-07 02:22 | -11.11025 | 125.87161 | 15956 ft | 384 kts | 244° |
| 2026-05-07 02:22 | -11.12321 | 125.84737 | 15955 ft | 385 kts | 244° |
| 2026-05-07 02:23 | -11.13585 | 125.82375 | 15953 ft | 385 kts | 244° |
| 2026-05-07 02:23 | -11.14866 | 125.79981 | 15952 ft | 385 kts | 244° |
| 2026-05-07 02:23 | -11.16144 | 125.77592 | 15951 ft | 385 kts | 244° |
| 2026-05-07 02:23 | -11.17422 | 125.75201 | 15954 ft | 384 kts | 244° |
| 2026-05-07 02:24 | -11.18701 | 125.72807 | 15955 ft | 384 kts | 244° |
| 2026-05-07 02:24 | -11.19979 | 125.70416 | 15956 ft | 384 kts | 244° |
| 2026-05-07 02:24 | -11.21262 | 125.68014 | 15953 ft | 385 kts | 244° |
| 2026-05-07 02:24 | -11.22539 | 125.65622 | 15954 ft | 385 kts | 244° |
| 2026-05-07 02:25 | -11.23817 | 125.63228 | 15954 ft | 384 kts | 244° |
| 2026-05-07 02:25 | -11.25097 | 125.60830 | 15953 ft | 384 kts | 244° |
| 2026-05-07 02:25 | -11.26356 | 125.58471 | 15950 ft | 384 kts | 244° |
| 2026-05-07 02:25 | -11.27634 | 125.56077 | 15955 ft | 384 kts | 244° |
| 2026-05-07 02:26 | -11.28907 | 125.53689 | 15956 ft | 384 kts | 244° |
| 2026-05-07 02:26 | -11.30185 | 125.51293 | 15958 ft | 385 kts | 243° |
| 2026-05-07 02:26 | -11.31464 | 125.48896 | 15955 ft | 385 kts | 244° |
| 2026-05-07 02:26 | -11.32743 | 125.46495 | 15954 ft | 385 kts | 244° |
| 2026-05-07 02:27 | -11.34018 | 125.44101 | 15953 ft | 385 kts | 244° |
| 2026-05-07 02:27 | -11.35295 | 125.41705 | 15953 ft | 385 kts | 244° |
| 2026-05-07 02:27 | -11.36573 | 125.39306 | 15954 ft | 385 kts | 243° |
| 2026-05-07 02:27 | -11.37850 | 125.36908 | 15955 ft | 385 kts | 244° |
| 2026-05-07 02:28 | -11.39130 | 125.34503 | 15954 ft | 385 kts | 244° |
| 2026-05-07 02:28 | -11.40403 | 125.32110 | 15955 ft | 384 kts | 243° |
| 2026-05-07 02:28 | -11.41677 | 125.29718 | 15953 ft | 384 kts | 243° |
| 2026-05-07 02:28 | -11.42953 | 125.27319 | 15957 ft | 384 kts | 244° |
| 2026-05-07 02:29 | -11.44208 | 125.24958 | 15955 ft | 384 kts | 243° |
| 2026-05-07 02:29 | -11.45482 | 125.22562 | 15952 ft | 384 kts | 244° |
| 2026-05-07 02:29 | -11.46773 | 125.20134 | 15954 ft | 384 kts | 243° |
| 2026-05-07 02:29 | -11.48028 | 125.17772 | 15956 ft | 384 kts | 243° |
| 2026-05-07 02:30 | -11.49304 | 125.15372 | 15952 ft | 384 kts | 243° |
| 2026-05-07 02:30 | -11.50576 | 125.12975 | 15951 ft | 384 kts | 244° |
| 2026-05-07 02:30 | -11.51848 | 125.10580 | 15955 ft | 384 kts | 243° |
| 2026-05-07 02:30 | -11.53122 | 125.08182 | 15952 ft | 384 kts | 243° |
| 2026-05-07 02:31 | -11.54398 | 125.05779 | 15956 ft | 384 kts | 243° |
| 2026-05-07 02:31 | -11.55668 | 125.03385 | 15955 ft | 383 kts | 243° |
| 2026-05-07 02:31 | -11.56923 | 125.01020 | 15956 ft | 383 kts | 243° |
| 2026-05-07 02:31 | -11.58191 | 124.98629 | 15957 ft | 384 kts | 243° |
| 2026-05-07 02:32 | -11.59461 | 124.96235 | 15954 ft | 384 kts | 243° |
| 2026-05-07 02:32 | -11.60731 | 124.93840 | 15952 ft | 384 kts | 243° |
| 2026-05-07 02:32 | -11.62000 | 124.91445 | 15950 ft | 384 kts | 243° |
| 2026-05-07 02:32 | -11.63271 | 124.89048 | 15953 ft | 384 kts | 243° |
| 2026-05-07 02:33 | -11.64542 | 124.86651 | 15954 ft | 384 kts | 243° |
| 2026-05-07 02:33 | -11.65812 | 124.84252 | 15954 ft | 384 kts | 243° |
| 2026-05-07 02:33 | -11.67079 | 124.81859 | 15956 ft | 384 kts | 243° |
| 2026-05-07 02:33 | -11.68349 | 124.79458 | 15959 ft | 384 kts | 243° |
| 2026-05-07 02:34 | -11.69618 | 124.77060 | 15952 ft | 383 kts | 243° |
| 2026-05-07 02:34 | -11.70887 | 124.74663 | 15957 ft | 383 kts | 243° |
| 2026-05-07 02:34 | -11.72152 | 124.72270 | 15960 ft | 383 kts | 243° |
| 2026-05-07 02:34 | -11.73419 | 124.69874 | 15956 ft | 383 kts | 243° |
| 2026-05-07 02:35 | -11.74668 | 124.67513 | 15956 ft | 383 kts | 243° |
| 2026-05-07 02:35 | -11.75936 | 124.65114 | 15953 ft | 383 kts | 243° |
| 2026-05-07 02:35 | -11.77217 | 124.62730 | 15950 ft | 383 kts | 243° |
| 2026-05-07 02:35 | -11.78524 | 124.60356 | 15954 ft | 383 kts | 242° |
| 2026-05-07 02:36 | -11.79839 | 124.57986 | 15958 ft | 383 kts | 242° |
| 2026-05-07 02:36 | -11.81152 | 124.55621 | 15958 ft | 383 kts | 242° |
| 2026-05-07 02:36 | -11.82468 | 124.53246 | 15957 ft | 383 kts | 242° |
| 2026-05-07 02:36 | -11.83776 | 124.50881 | 15955 ft | 383 kts | 242° |
| 2026-05-07 02:37 | -11.85084 | 124.48514 | 15957 ft | 383 kts | 242° |
| 2026-05-07 02:37 | -11.86373 | 124.46179 | 15954 ft | 383 kts | 242° |
| 2026-05-07 02:37 | -11.87679 | 124.43808 | 15959 ft | 382 kts | 242° |
| 2026-05-07 02:37 | -11.88985 | 124.41438 | 15956 ft | 382 kts | 242° |
| 2026-05-07 02:38 | -11.90288 | 124.39071 | 15955 ft | 382 kts | 242° |
| 2026-05-07 02:38 | -11.91593 | 124.36699 | 15954 ft | 382 kts | 242° |
| 2026-05-07 02:38 | -11.92899 | 124.34327 | 15955 ft | 382 kts | 242° |
| 2026-05-07 02:38 | -11.94202 | 124.31958 | 15956 ft | 382 kts | 242° |
| 2026-05-07 02:39 | -11.95505 | 124.29588 | 15958 ft | 383 kts | 242° |
| 2026-05-07 02:39 | -11.96791 | 124.27248 | 15957 ft | 383 kts | 242° |
| 2026-05-07 02:39 | -11.98097 | 124.24873 | 15954 ft | 383 kts | 242° |
| 2026-05-07 02:39 | -11.99400 | 124.22503 | 15959 ft | 383 kts | 242° |
| 2026-05-07 02:40 | -12.00703 | 124.20132 | 15957 ft | 382 kts | 242° |
| 2026-05-07 02:40 | -12.02006 | 124.17759 | 15957 ft | 382 kts | 242° |
| 2026-05-07 02:40 | -12.03306 | 124.15392 | 15956 ft | 382 kts | 242° |
| 2026-05-07 02:40 | -12.04608 | 124.13021 | 15956 ft | 382 kts | 242° |
| 2026-05-07 02:41 | -12.05908 | 124.10653 | 15959 ft | 382 kts | 242° |
| 2026-05-07 02:41 | -12.06770 | 124.09082 | 15963 ft | 382 kts | 242° |
| 2026-05-07 02:41 | -12.08493 | 124.05942 | 15956 ft | 382 kts | 242° |
| 2026-05-07 02:41 | -12.09370 | 124.04343 | 15959 ft | 382 kts | 242° |
| 2026-05-07 02:42 | -12.10670 | 124.01971 | 15961 ft | 382 kts | 243° |
| 2026-05-07 02:42 | -12.12393 | 123.98828 | 15959 ft | 383 kts | 242° |
| 2026-05-07 02:42 | -12.13256 | 123.97251 | 15957 ft | 383 kts | 242° |
| 2026-05-07 02:42 | -12.14556 | 123.94878 | 15957 ft | 383 kts | 242° |
| 2026-05-07 02:43 | -12.15859 | 123.92500 | 15956 ft | 382 kts | 242° |
| 2026-05-07 02:43 | -12.17159 | 123.90128 | 15957 ft | 382 kts | 242° |
| 2026-05-07 02:43 | -12.18458 | 123.87758 | 15957 ft | 382 kts | 242° |
| 2026-05-07 02:43 | -12.19753 | 123.85391 | 15957 ft | 382 kts | 242° |
| 2026-05-07 02:44 | -12.21049 | 123.83023 | 15956 ft | 382 kts | 242° |
| 2026-05-07 02:44 | -12.22348 | 123.80650 | 15956 ft | 382 kts | 242° |
| 2026-05-07 02:44 | -12.23643 | 123.78282 | 15960 ft | 382 kts | 242° |
| 2026-05-07 02:44 | -12.24941 | 123.75908 | 15961 ft | 382 kts | 242° |
| 2026-05-07 02:45 | -12.26224 | 123.73562 | 15958 ft | 382 kts | 242° |
| 2026-05-07 02:45 | -12.27522 | 123.71187 | 15960 ft | 382 kts | 242° |
| 2026-05-07 02:45 | -12.28819 | 123.68814 | 15958 ft | 382 kts | 242° |
| 2026-05-07 02:45 | -12.30115 | 123.66441 | 15957 ft | 382 kts | 243° |
| 2026-05-07 02:46 | -12.31411 | 123.64068 | 15959 ft | 382 kts | 243° |
| 2026-05-07 02:46 | -12.32709 | 123.61691 | 15960 ft | 382 kts | 242° |
| 2026-05-07 02:46 | -12.33984 | 123.59356 | 15960 ft | 381 kts | 242° |
| 2026-05-07 02:46 | -12.35293 | 123.56956 | 15960 ft | 381 kts | 243° |
| 2026-05-07 02:47 | -12.36571 | 123.54614 | 15963 ft | 381 kts | 243° |
| 2026-05-07 02:47 | -12.37863 | 123.52245 | 15962 ft | 381 kts | 243° |
| 2026-05-07 02:47 | -12.39159 | 123.49869 | 15959 ft | 381 kts | 243° |
| 2026-05-07 02:47 | -12.40450 | 123.47501 | 15965 ft | 381 kts | 242° |
| 2026-05-07 02:48 | -12.41744 | 123.45127 | 15964 ft | 381 kts | 243° |
| 2026-05-07 02:48 | -12.43037 | 123.42752 | 15959 ft | 381 kts | 243° |
| 2026-05-07 02:48 | -12.44330 | 123.40379 | 15960 ft | 381 kts | 243° |
| 2026-05-07 02:48 | -12.45619 | 123.38012 | 15962 ft | 381 kts | 243° |
| 2026-05-07 02:49 | -12.46890 | 123.35673 | 15961 ft | 380 kts | 244° |
| 2026-05-07 02:49 | -12.47929 | 123.33193 | 15964 ft | 379 kts | 253° |
| 2026-05-07 02:49 | -12.48575 | 123.30587 | 15963 ft | 377 kts | 262° |
| 2026-05-07 02:49 | -12.48829 | 123.27921 | 15974 ft | 377 kts | 266° |
| 2026-05-07 02:50 | -12.49007 | 123.25244 | 15963 ft | 377 kts | 266° |
| 2026-05-07 02:50 | -12.49173 | 123.22568 | 15959 ft | 377 kts | 267° |
| 2026-05-07 02:50 | -12.49339 | 123.19891 | 15961 ft | 377 kts | 266° |
| 2026-05-07 02:50 | -12.49509 | 123.17213 | 15963 ft | 377 kts | 266° |
| 2026-05-07 02:51 | -12.49684 | 123.14534 | 15960 ft | 377 kts | 266° |
| 2026-05-07 02:51 | -12.49863 | 123.11853 | 15960 ft | 377 kts | 266° |
| 2026-05-07 02:51 | -12.50044 | 123.09176 | 15959 ft | 377 kts | 266° |
| 2026-05-07 02:51 | -12.50226 | 123.06499 | 15956 ft | 377 kts | 266° |
| 2026-05-07 02:52 | -12.50409 | 123.03821 | 15959 ft | 377 kts | 266° |
| 2026-05-07 02:52 | -12.50592 | 123.01145 | 15961 ft | 377 kts | 266° |
| 2026-05-07 02:52 | -12.50772 | 122.98502 | 15957 ft | 377 kts | 266° |
| 2026-05-07 02:52 | -12.50955 | 122.95822 | 15963 ft | 377 kts | 266° |
| 2026-05-07 02:53 | -12.51138 | 122.93144 | 15957 ft | 377 kts | 266° |
| 2026-05-07 02:53 | -12.51320 | 122.90466 | 15959 ft | 377 kts | 266° |
| 2026-05-07 02:53 | -12.51502 | 122.87792 | 15957 ft | 377 kts | 266° |
| 2026-05-07 02:53 | -12.51684 | 122.85112 | 15960 ft | 377 kts | 266° |
| 2026-05-07 02:54 | -12.51866 | 122.82434 | 15959 ft | 377 kts | 266° |
| 2026-05-07 02:54 | -12.52047 | 122.79755 | 15961 ft | 377 kts | 266° |
| 2026-05-07 02:54 | -12.52228 | 122.77082 | 15961 ft | 376 kts | 266° |
| 2026-05-07 02:54 | -12.52408 | 122.74406 | 15958 ft | 376 kts | 266° |
| 2026-05-07 02:55 | -12.52588 | 122.71736 | 15955 ft | 376 kts | 266° |
| 2026-05-07 02:55 | -12.52768 | 122.69062 | 15964 ft | 376 kts | 266° |
| 2026-05-07 02:55 | -12.52948 | 122.66387 | 15952 ft | 377 kts | 266° |
| 2026-05-07 02:55 | -12.53125 | 122.63746 | 15955 ft | 377 kts | 266° |
| 2026-05-07 02:56 | -12.53307 | 122.61031 | 15956 ft | 377 kts | 266° |
| 2026-05-07 02:56 | -12.53484 | 122.58385 | 15956 ft | 377 kts | 266° |
| 2026-05-07 02:56 | -12.53663 | 122.55704 | 15952 ft | 377 kts | 266° |
| 2026-05-07 02:56 | -12.53842 | 122.53030 | 15951 ft | 377 kts | 266° |
| 2026-05-07 02:57 | -12.54020 | 122.50349 | 15954 ft | 377 kts | 266° |
| 2026-05-07 02:57 | -12.54198 | 122.47670 | 15958 ft | 377 kts | 266° |
| 2026-05-07 02:57 | -12.54376 | 122.44993 | 15954 ft | 377 kts | 266° |
| 2026-05-07 02:57 | -12.54553 | 122.42315 | 15957 ft | 377 kts | 266° |
| 2026-05-07 02:58 | -12.54730 | 122.39642 | 15956 ft | 377 kts | 266° |
| 2026-05-07 02:58 | -12.54907 | 122.36966 | 15949 ft | 377 kts | 266° |
| 2026-05-07 02:58 | -12.55081 | 122.34329 | 15952 ft | 377 kts | 266° |
| 2026-05-07 02:58 | -12.55258 | 122.31647 | 15955 ft | 377 kts | 266° |
| 2026-05-07 02:59 | -12.55434 | 122.28971 | 15954 ft | 377 kts | 266° |
| 2026-05-07 02:59 | -12.55610 | 122.26291 | 15954 ft | 377 kts | 266° |
| 2026-05-07 02:59 | -12.55786 | 122.23612 | 15955 ft | 377 kts | 266° |
| 2026-05-07 02:59 | -12.55961 | 122.20931 | 15954 ft | 377 kts | 266° |
| 2026-05-07 03:00 | -12.56136 | 122.18256 | 15958 ft | 377 kts | 266° |
| 2026-05-07 03:00 | -12.56312 | 122.15573 | 15953 ft | 377 kts | 266° |
| 2026-05-07 03:00 | -12.56486 | 122.12894 | 15954 ft | 377 kts | 266° |
| 2026-05-07 03:00 | -12.56659 | 122.10248 | 15953 ft | 377 kts | 266° |
| 2026-05-07 03:01 | -12.56835 | 122.07534 | 15954 ft | 377 kts | 266° |
| 2026-05-07 03:01 | -12.57007 | 122.04889 | 15954 ft | 377 kts | 266° |
| 2026-05-07 03:01 | -12.57180 | 122.02212 | 15955 ft | 377 kts | 266° |
| 2026-05-07 03:01 | -12.57353 | 121.99531 | 15953 ft | 377 kts | 266° |
| 2026-05-07 03:02 | -12.57526 | 121.96851 | 15951 ft | 377 kts | 266° |
| 2026-05-07 03:02 | -12.57699 | 121.94170 | 15951 ft | 377 kts | 266° |
| 2026-05-07 03:02 | -12.57872 | 121.91497 | 15954 ft | 377 kts | 266° |
| 2026-05-07 03:02 | -12.58044 | 121.88820 | 15955 ft | 377 kts | 266° |
| 2026-05-07 03:03 | -12.58216 | 121.86143 | 15951 ft | 377 kts | 266° |
| 2026-05-07 03:03 | -12.58387 | 121.83464 | 15952 ft | 377 kts | 266° |
| 2026-05-07 03:03 | -12.58558 | 121.80792 | 15954 ft | 377 kts | 266° |
| 2026-05-07 03:03 | -12.58730 | 121.78113 | 15954 ft | 377 kts | 266° |
| 2026-05-07 03:04 | -12.58900 | 121.75439 | 15953 ft | 377 kts | 266° |
| 2026-05-07 03:04 | -12.59071 | 121.72756 | 15954 ft | 377 kts | 266° |
| 2026-05-07 03:04 | -12.59239 | 121.70111 | 15951 ft | 377 kts | 266° |
| 2026-05-07 03:04 | -12.59409 | 121.67431 | 15951 ft | 377 kts | 266° |
| 2026-05-07 03:05 | -12.59579 | 121.64746 | 15951 ft | 377 kts | 266° |
| 2026-05-07 03:05 | -12.59749 | 121.62059 | 15954 ft | 377 kts | 266° |
| 2026-05-07 03:05 | -12.59918 | 121.59382 | 15954 ft | 377 kts | 266° |
| 2026-05-07 03:05 | -12.60087 | 121.56705 | 15951 ft | 377 kts | 266° |
| 2026-05-07 03:06 | -12.60256 | 121.54030 | 15956 ft | 377 kts | 266° |
| 2026-05-07 03:06 | -12.60425 | 121.51349 | 15951 ft | 377 kts | 266° |
| 2026-05-07 03:06 | -12.60593 | 121.48674 | 15950 ft | 377 kts | 266° |
| 2026-05-07 03:06 | -12.60761 | 121.45994 | 15952 ft | 377 kts | 266° |
| 2026-05-07 03:07 | -12.60929 | 121.43305 | 15949 ft | 377 kts | 266° |
| 2026-05-07 03:07 | -12.61097 | 121.40621 | 15946 ft | 377 kts | 266° |
| 2026-05-07 03:07 | -12.61264 | 121.37943 | 15949 ft | 378 kts | 266° |
| 2026-05-07 03:07 | -12.61429 | 121.35292 | 15948 ft | 378 kts | 266° |
| 2026-05-07 03:08 | -12.61596 | 121.32608 | 15952 ft | 378 kts | 266° |
| 2026-05-07 03:08 | -12.61763 | 121.29917 | 15949 ft | 378 kts | 266° |
| 2026-05-07 03:08 | -12.61930 | 121.27230 | 15949 ft | 377 kts | 266° |
| 2026-05-07 03:08 | -12.62096 | 121.24549 | 15952 ft | 377 kts | 266° |
| 2026-05-07 03:09 | -12.62261 | 121.21870 | 15951 ft | 377 kts | 266° |
| 2026-05-07 03:09 | -12.62427 | 121.19179 | 15951 ft | 377 kts | 266° |
| 2026-05-07 03:09 | -12.62592 | 121.16495 | 15949 ft | 377 kts | 266° |
| 2026-05-07 03:09 | -12.62757 | 121.13816 | 15951 ft | 377 kts | 266° |
| 2026-05-07 03:10 | -12.62922 | 121.11133 | 15952 ft | 377 kts | 266° |
| 2026-05-07 03:10 | -12.63084 | 121.08485 | 15951 ft | 377 kts | 266° |
| 2026-05-07 03:10 | -12.63249 | 121.05797 | 15952 ft | 377 kts | 266° |
| 2026-05-07 03:10 | -12.63413 | 121.03114 | 15948 ft | 377 kts | 266° |
| 2026-05-07 03:11 | -12.63576 | 121.00430 | 15951 ft | 377 kts | 266° |
| 2026-05-07 03:11 | -12.63739 | 120.97749 | 15952 ft | 377 kts | 266° |
| 2026-05-07 03:11 | -12.63902 | 120.95066 | 15952 ft | 377 kts | 266° |
| 2026-05-07 03:11 | -12.64065 | 120.92384 | 15950 ft | 377 kts | 266° |
| 2026-05-07 03:12 | -12.64228 | 120.89700 | 15951 ft | 377 kts | 266° |
| 2026-05-07 03:12 | -12.64390 | 120.87020 | 15949 ft | 378 kts | 266° |
| 2026-05-07 03:12 | -12.64552 | 120.84335 | 15952 ft | 378 kts | 266° |
| 2026-05-07 03:12 | -12.64713 | 120.81673 | 15949 ft | 378 kts | 266° |
| 2026-05-07 03:13 | -12.64874 | 120.78990 | 15953 ft | 378 kts | 266° |
| 2026-05-07 03:13 | -12.65035 | 120.76306 | 15953 ft | 378 kts | 266° |
| 2026-05-07 03:13 | -12.65196 | 120.73623 | 15949 ft | 378 kts | 266° |
| 2026-05-07 03:13 | -12.65357 | 120.70944 | 15955 ft | 377 kts | 266° |
| 2026-05-07 03:14 | -12.65518 | 120.68257 | 15948 ft | 377 kts | 266° |
| 2026-05-07 03:14 | -12.65677 | 120.65578 | 15950 ft | 377 kts | 266° |
| 2026-05-07 03:14 | -12.66350 | 120.60271 | 15945 ft | 378 kts | 249° |
| 2026-05-07 03:15 | -12.67683 | 120.57958 | 15956 ft | 380 kts | 231° |
| 2026-05-07 03:15 | -12.69674 | 120.56168 | 15961 ft | 383 kts | 214° |
| 2026-05-07 03:15 | -12.72103 | 120.55029 | 15951 ft | 388 kts | 198° |
| 2026-05-07 03:15 | -12.74755 | 120.54652 | 15962 ft | 391 kts | 186° |
| 2026-05-07 03:16 | -12.77476 | 120.54524 | 15954 ft | 392 kts | 184° |
| 2026-05-07 03:16 | -12.80201 | 120.54451 | 15948 ft | 392 kts | 184° |
| 2026-05-07 03:16 | -12.82927 | 120.54389 | 15948 ft | 392 kts | 184° |
| 2026-05-07 03:16 | -12.85656 | 120.54322 | 15948 ft | 392 kts | 184° |
| 2026-05-07 03:17 | -12.88388 | 120.54245 | 15952 ft | 392 kts | 184° |
| 2026-05-07 03:17 | -12.91112 | 120.54160 | 15952 ft | 392 kts | 184° |
| 2026-05-07 03:17 | -12.93840 | 120.54067 | 15951 ft | 391 kts | 184° |
| 2026-05-07 03:17 | -12.96566 | 120.53971 | 15954 ft | 391 kts | 185° |
| 2026-05-07 03:18 | -12.99283 | 120.53872 | 15958 ft | 391 kts | 185° |
| 2026-05-07 03:18 | -13.02000 | 120.53771 | 15956 ft | 391 kts | 185° |
| 2026-05-07 03:18 | -13.04720 | 120.53670 | 15955 ft | 391 kts | 185° |
| 2026-05-07 03:18 | -13.07435 | 120.53568 | 15956 ft | 390 kts | 185° |
| 2026-05-07 03:19 | -13.10153 | 120.53465 | 15959 ft | 390 kts | 185° |
| 2026-05-07 03:19 | -13.12863 | 120.53364 | 15957 ft | 390 kts | 185° |
| 2026-05-07 03:19 | -13.15582 | 120.53262 | 15959 ft | 390 kts | 185° |
| 2026-05-07 03:19 | -13.18259 | 120.53163 | 15960 ft | 390 kts | 185° |
| 2026-05-07 03:20 | -13.20973 | 120.53061 | 15961 ft | 390 kts | 185° |
| 2026-05-07 03:20 | -13.23681 | 120.52960 | 15960 ft | 390 kts | 185° |
| 2026-05-07 03:20 | -13.26395 | 120.52859 | 15958 ft | 390 kts | 185° |
| 2026-05-07 03:20 | -13.29105 | 120.52758 | 15958 ft | 390 kts | 185° |
| 2026-05-07 03:21 | -13.31820 | 120.52657 | 15958 ft | 389 kts | 185° |
| 2026-05-07 03:21 | -13.34533 | 120.52555 | 15963 ft | 389 kts | 185° |
| 2026-05-07 03:21 | -13.37241 | 120.52454 | 15963 ft | 389 kts | 185° |
| 2026-05-07 03:21 | -13.39946 | 120.52352 | 15963 ft | 389 kts | 185° |
| 2026-05-07 03:22 | -13.42660 | 120.52251 | 15962 ft | 389 kts | 185° |
| 2026-05-07 03:22 | -13.45331 | 120.52151 | 15962 ft | 389 kts | 185° |
| 2026-05-07 03:22 | -13.48036 | 120.52050 | 15964 ft | 389 kts | 185° |
| 2026-05-07 03:22 | -13.50741 | 120.51949 | 15961 ft | 389 kts | 185° |
| 2026-05-07 03:23 | -13.53442 | 120.51848 | 15967 ft | 389 kts | 185° |
| 2026-05-07 03:23 | -13.56147 | 120.51747 | 15964 ft | 389 kts | 185° |
| 2026-05-07 03:23 | -13.58845 | 120.51646 | 15964 ft | 388 kts | 185° |
| 2026-05-07 03:23 | -13.61550 | 120.51545 | 15965 ft | 388 kts | 185° |
| 2026-05-07 03:24 | -13.64255 | 120.51444 | 15962 ft | 388 kts | 185° |
| 2026-05-07 03:24 | -13.66956 | 120.51342 | 15963 ft | 388 kts | 185° |
| 2026-05-07 03:24 | -13.69657 | 120.51241 | 15964 ft | 388 kts | 185° |
| 2026-05-07 03:24 | -13.72355 | 120.51140 | 15967 ft | 387 kts | 185° |
| 2026-05-07 03:25 | -13.75052 | 120.51039 | 15965 ft | 387 kts | 185° |
| 2026-05-07 03:25 | -13.77709 | 120.50940 | 15964 ft | 387 kts | 185° |
| 2026-05-07 03:25 | -13.80401 | 120.50839 | 15968 ft | 387 kts | 185° |
| 2026-05-07 03:25 | -13.83093 | 120.50738 | 15969 ft | 387 kts | 185° |
| 2026-05-07 03:26 | -13.85788 | 120.50637 | 15969 ft | 387 kts | 185° |
| 2026-05-07 03:26 | -13.88477 | 120.50536 | 15969 ft | 387 kts | 185° |
| 2026-05-07 03:26 | -13.91170 | 120.50435 | 15968 ft | 387 kts | 185° |
| 2026-05-07 03:26 | -13.93863 | 120.50334 | 15966 ft | 387 kts | 185° |
| 2026-05-07 03:27 | -13.96554 | 120.50233 | 15969 ft | 387 kts | 185° |
| 2026-05-07 03:27 | -13.99247 | 120.50132 | 15967 ft | 387 kts | 185° |
| 2026-05-07 03:27 | -14.01939 | 120.50030 | 15966 ft | 387 kts | 185° |
| 2026-05-07 03:27 | -14.04630 | 120.49929 | 15968 ft | 387 kts | 185° |
| 2026-05-07 03:28 | -14.07324 | 120.49828 | 15972 ft | 387 kts | 185° |
| 2026-05-07 03:28 | -14.09977 | 120.49728 | 15970 ft | 387 kts | 185° |
| 2026-05-07 03:28 | -14.12664 | 120.49627 | 15969 ft | 387 kts | 185° |
| 2026-05-07 03:28 | -14.15354 | 120.49526 | 15969 ft | 386 kts | 185° |
| 2026-05-07 03:29 | -14.18043 | 120.49425 | 15974 ft | 386 kts | 185° |
| 2026-05-07 03:29 | -14.20733 | 120.49323 | 15972 ft | 386 kts | 185° |
| 2026-05-07 03:29 | -14.23426 | 120.49222 | 15974 ft | 386 kts | 185° |
| 2026-05-07 03:29 | -14.26109 | 120.49121 | 15974 ft | 386 kts | 185° |
| 2026-05-07 03:30 | -14.27893 | 120.49054 | 15972 ft | 386 kts | 185° |
| 2026-05-07 03:30 | -14.30578 | 120.48953 | 15976 ft | 386 kts | 185° |
| 2026-05-07 03:30 | -14.33263 | 120.48851 | 15974 ft | 386 kts | 185° |
| 2026-05-07 03:30 | -14.35950 | 120.48750 | 15976 ft | 386 kts | 185° |
| 2026-05-07 03:31 | -14.38631 | 120.48649 | 15976 ft | 386 kts | 185° |
| 2026-05-07 03:31 | -14.41321 | 120.48548 | 15976 ft | 386 kts | 185° |
| 2026-05-07 03:31 | -14.44002 | 120.48447 | 15975 ft | 386 kts | 185° |
| 2026-05-07 03:31 | -14.46692 | 120.48345 | 15976 ft | 386 kts | 185° |
| 2026-05-07 03:32 | -14.49374 | 120.48244 | 15981 ft | 386 kts | 185° |
| 2026-05-07 03:32 | -14.52929 | 120.48110 | 15978 ft | 386 kts | 185° |
| 2026-05-07 03:32 | -14.54710 | 120.48043 | 15982 ft | 386 kts | 185° |
| 2026-05-07 03:32 | -14.57403 | 120.47941 | 15980 ft | 386 kts | 185° |
| 2026-05-07 03:33 | -14.60082 | 120.47840 | 15984 ft | 386 kts | 185° |
| 2026-05-07 03:33 | -14.62767 | 120.47738 | 15986 ft | 386 kts | 185° |
| 2026-05-07 03:33 | -14.65455 | 120.47637 | 15983 ft | 386 kts | 185° |
| 2026-05-07 03:33 | -14.68138 | 120.47535 | 15985 ft | 386 kts | 185° |
| 2026-05-07 03:34 | -14.70833 | 120.47434 | 15986 ft | 386 kts | 185° |
| 2026-05-07 03:34 | -14.73521 | 120.47332 | 15987 ft | 386 kts | 185° |
| 2026-05-07 03:34 | -14.76203 | 120.47230 | 15986 ft | 386 kts | 185° |
| 2026-05-07 03:34 | -14.78892 | 120.47128 | 15986 ft | 386 kts | 185° |
| 2026-05-07 03:35 | -14.81579 | 120.47027 | 15986 ft | 386 kts | 185° |
| 2026-05-07 03:35 | -14.84278 | 120.46925 | 15992 ft | 386 kts | 185° |
| 2026-05-07 03:35 | -14.86930 | 120.46825 | 15991 ft | 387 kts | 185° |
| 2026-05-07 03:35 | -14.89620 | 120.46723 | 15988 ft | 387 kts | 185° |
| 2026-05-07 03:36 | -14.92313 | 120.46621 | 15990 ft | 387 kts | 185° |
| 2026-05-07 03:36 | -14.95002 | 120.46519 | 15989 ft | 387 kts | 185° |
| 2026-05-07 03:36 | -14.97697 | 120.46417 | 15993 ft | 387 kts | 185° |
| 2026-05-07 03:36 | -15.00395 | 120.46315 | 15994 ft | 387 kts | 185° |
| 2026-05-07 03:37 | -15.03085 | 120.46213 | 15991 ft | 387 kts | 185° |
| 2026-05-07 03:37 | -15.05782 | 120.46111 | 15993 ft | 388 kts | 185° |
| 2026-05-07 03:37 | -15.08479 | 120.46008 | 15992 ft | 388 kts | 185° |
| 2026-05-07 03:37 | -15.11177 | 120.45906 | 15995 ft | 388 kts | 185° |
| 2026-05-07 03:38 | -15.13872 | 120.45804 | 15992 ft | 388 kts | 185° |
| 2026-05-07 03:38 | -15.16544 | 120.45702 | 15991 ft | 388 kts | 185° |
| 2026-05-07 03:38 | -15.19242 | 120.45600 | 15993 ft | 388 kts | 185° |
| 2026-05-07 03:38 | -15.21941 | 120.45498 | 15993 ft | 388 kts | 185° |
| 2026-05-07 03:39 | -15.24636 | 120.45395 | 15996 ft | 388 kts | 185° |
| 2026-05-07 03:39 | -15.27332 | 120.45293 | 15994 ft | 388 kts | 185° |
| 2026-05-07 03:39 | -15.30031 | 120.45190 | 15993 ft | 388 kts | 185° |
| 2026-05-07 03:39 | -15.32724 | 120.45088 | 15995 ft | 388 kts | 185° |
| 2026-05-07 03:40 | -15.35425 | 120.44985 | 15995 ft | 388 kts | 185° |
| 2026-05-07 03:40 | -15.38086 | 120.44802 | 15988 ft | 386 kts | 191° |
| 2026-05-07 03:40 | -15.40684 | 120.44152 | 15997 ft | 382 kts | 201° |
| 2026-05-07 03:40 | -15.43126 | 120.43079 | 15992 ft | 380 kts | 211° |
| 2026-05-07 03:41 | -15.45401 | 120.41685 | 16000 ft | 379 kts | 213° |
| 2026-05-07 03:41 | -15.47644 | 120.40245 | 15995 ft | 379 kts | 214° |
| 2026-05-07 03:41 | -15.49881 | 120.38794 | 15990 ft | 379 kts | 214° |
| 2026-05-07 03:41 | -15.52117 | 120.37344 | 15995 ft | 379 kts | 214° |
| 2026-05-07 03:42 | -15.54361 | 120.35896 | 15995 ft | 379 kts | 214° |
| 2026-05-07 03:42 | -15.56606 | 120.34454 | 15992 ft | 379 kts | 214° |
| 2026-05-07 03:42 | -15.58851 | 120.33018 | 15995 ft | 379 kts | 214° |
| 2026-05-07 03:42 | -15.61098 | 120.31583 | 15994 ft | 379 kts | 214° |
| 2026-05-07 03:43 | -15.63342 | 120.30151 | 15993 ft | 379 kts | 214° |
| 2026-05-07 03:43 | -15.65594 | 120.28716 | 15996 ft | 379 kts | 214° |
| 2026-05-07 03:43 | -15.67811 | 120.27303 | 15995 ft | 379 kts | 214° |
| 2026-05-07 03:43 | -15.70060 | 120.25870 | 15992 ft | 379 kts | 214° |
| 2026-05-07 03:44 | -15.72315 | 120.24433 | 15994 ft | 379 kts | 214° |
| 2026-05-07 03:44 | -15.74562 | 120.23000 | 15995 ft | 379 kts | 214° |
| 2026-05-07 03:44 | -15.76814 | 120.21563 | 15995 ft | 379 kts | 214° |
| 2026-05-07 03:44 | -15.79067 | 120.20126 | 15994 ft | 379 kts | 214° |
| 2026-05-07 03:45 | -15.81315 | 120.18692 | 15994 ft | 379 kts | 214° |
| 2026-05-07 03:45 | -15.83571 | 120.17252 | 15997 ft | 379 kts | 214° |
| 2026-05-07 03:45 | -15.85815 | 120.15819 | 15995 ft | 379 kts | 214° |
| 2026-05-07 03:45 | -15.88067 | 120.14381 | 15994 ft | 379 kts | 214° |
| 2026-05-07 03:46 | -15.90310 | 120.12948 | 15994 ft | 379 kts | 214° |
| 2026-05-07 03:46 | -15.92528 | 120.11531 | 15996 ft | 378 kts | 214° |
| 2026-05-07 03:46 | -15.94772 | 120.10097 | 15994 ft | 378 kts | 214° |
| 2026-05-07 03:46 | -15.97013 | 120.08664 | 15997 ft | 378 kts | 214° |
| 2026-05-07 03:47 | -15.99258 | 120.07229 | 15995 ft | 378 kts | 214° |
| 2026-05-07 03:47 | -16.01503 | 120.05793 | 15998 ft | 378 kts | 214° |
| 2026-05-07 03:47 | -16.03742 | 120.04360 | 15997 ft | 378 kts | 214° |
| 2026-05-07 03:47 | -16.05983 | 120.02926 | 15997 ft | 378 kts | 214° |
| 2026-05-07 03:48 | -16.08220 | 120.01494 | 15999 ft | 378 kts | 214° |
| 2026-05-07 03:48 | -16.10460 | 120.00060 | 15998 ft | 378 kts | 214° |
| 2026-05-07 03:48 | -16.12702 | 119.98623 | 15999 ft | 377 kts | 214° |
| 2026-05-07 03:48 | -16.14907 | 119.97210 | 15997 ft | 377 kts | 214° |
| 2026-05-07 03:49 | -16.17145 | 119.95776 | 15998 ft | 377 kts | 214° |
| 2026-05-07 03:49 | -16.19383 | 119.94341 | 15997 ft | 377 kts | 214° |
| 2026-05-07 03:49 | -16.21616 | 119.92910 | 15997 ft | 378 kts | 214° |
| 2026-05-07 03:49 | -16.23858 | 119.91472 | 15997 ft | 378 kts | 214° |
| 2026-05-07 03:50 | -16.26100 | 119.90034 | 16000 ft | 378 kts | 214° |
| 2026-05-07 03:50 | -16.28337 | 119.88598 | 16000 ft | 378 kts | 214° |
| 2026-05-07 03:50 | -16.30574 | 119.87162 | 16000 ft | 378 kts | 214° |
| 2026-05-07 03:50 | -16.32816 | 119.85723 | 16000 ft | 378 kts | 214° |
| 2026-05-07 03:51 | -16.35053 | 119.84286 | 15999 ft | 378 kts | 214° |
| 2026-05-07 03:51 | -16.37291 | 119.82848 | 15999 ft | 378 kts | 214° |
| 2026-05-07 03:51 | -16.39526 | 119.81412 | 16002 ft | 378 kts | 214° |
| 2026-05-07 03:51 | -16.41733 | 119.79994 | 16001 ft | 378 kts | 214° |
| 2026-05-07 03:52 | -16.43971 | 119.78555 | 16004 ft | 378 kts | 214° |
| 2026-05-07 03:52 | -16.46208 | 119.77116 | 16003 ft | 378 kts | 214° |
| 2026-05-07 03:52 | -16.48447 | 119.75676 | 16002 ft | 378 kts | 214° |
| 2026-05-07 03:52 | -16.50683 | 119.74237 | 16005 ft | 377 kts | 214° |
| 2026-05-07 03:53 | -16.52915 | 119.72800 | 16000 ft | 377 kts | 214° |
| 2026-05-07 03:53 | -16.55152 | 119.71360 | 16002 ft | 377 kts | 214° |
| 2026-05-07 03:53 | -16.57385 | 119.69922 | 16000 ft | 377 kts | 214° |
| 2026-05-07 03:53 | -16.59619 | 119.68483 | 16002 ft | 377 kts | 214° |
| 2026-05-07 03:54 | -16.61852 | 119.67044 | 16003 ft | 377 kts | 214° |
| 2026-05-07 03:54 | -16.64085 | 119.65605 | 16003 ft | 377 kts | 214° |
| 2026-05-07 03:54 | -16.66316 | 119.64166 | 16001 ft | 377 kts | 214° |
| 2026-05-07 03:54 | -16.68553 | 119.62724 | 16007 ft | 377 kts | 214° |
| 2026-05-07 03:55 | -16.70783 | 119.61285 | 16007 ft | 377 kts | 214° |
| 2026-05-07 03:55 | -16.73021 | 119.59841 | 16008 ft | 378 kts | 214° |
| 2026-05-07 03:55 | -16.75256 | 119.58398 | 16005 ft | 378 kts | 214° |
| 2026-05-07 03:55 | -16.77494 | 119.56954 | 16008 ft | 378 kts | 214° |
| 2026-05-07 03:56 | -16.79733 | 119.55507 | 16008 ft | 378 kts | 214° |
| 2026-05-07 03:56 | -16.81944 | 119.54079 | 16011 ft | 378 kts | 214° |
| 2026-05-07 03:56 | -16.84183 | 119.52633 | 16009 ft | 378 kts | 214° |
| 2026-05-07 03:56 | -16.86422 | 119.51185 | 16014 ft | 379 kts | 214° |
| 2026-05-07 03:57 | -16.88666 | 119.49735 | 16007 ft | 379 kts | 214° |
| 2026-05-07 03:57 | -16.90908 | 119.48284 | 16006 ft | 379 kts | 214° |
| 2026-05-07 03:57 | -16.93146 | 119.46837 | 16010 ft | 378 kts | 214° |
| 2026-05-07 03:57 | -16.95389 | 119.45386 | 16009 ft | 378 kts | 214° |
| 2026-05-07 03:58 | -16.97625 | 119.43939 | 16007 ft | 378 kts | 214° |
| 2026-05-07 03:58 | -16.99862 | 119.42491 | 16009 ft | 378 kts | 214° |
| 2026-05-07 03:58 | -17.02102 | 119.41040 | 16008 ft | 378 kts | 214° |
| 2026-05-07 03:58 | -17.04342 | 119.39589 | 16005 ft | 378 kts | 214° |
| 2026-05-07 03:59 | -17.06579 | 119.38139 | 16007 ft | 378 kts | 214° |
| 2026-05-07 03:59 | -17.08788 | 119.36707 | 16007 ft | 378 kts | 214° |
| 2026-05-07 03:59 | -17.11029 | 119.35254 | 16005 ft | 378 kts | 214° |
| 2026-05-07 03:59 | -17.13261 | 119.33807 | 16008 ft | 378 kts | 214° |
| 2026-05-07 04:00 | -17.15505 | 119.32351 | 16008 ft | 378 kts | 214° |
| 2026-05-07 04:00 | -17.17740 | 119.30900 | 16007 ft | 379 kts | 214° |
| 2026-05-07 04:00 | -17.19984 | 119.29443 | 16004 ft | 379 kts | 214° |
| 2026-05-07 04:00 | -17.22224 | 119.27989 | 16009 ft | 378 kts | 214° |
| 2026-05-07 04:01 | -17.24458 | 119.26539 | 16010 ft | 378 kts | 214° |
| 2026-05-07 04:01 | -17.26696 | 119.25084 | 16008 ft | 378 kts | 214° |
| 2026-05-07 04:01 | -17.28935 | 119.23629 | 16008 ft | 378 kts | 214° |
| 2026-05-07 04:01 | -17.31175 | 119.22173 | 16011 ft | 378 kts | 214° |
| 2026-05-07 04:02 | -17.33411 | 119.20719 | 16010 ft | 378 kts | 214° |
| 2026-05-07 04:02 | -17.35650 | 119.19262 | 16006 ft | 378 kts | 214° |
| 2026-05-07 04:02 | -17.37860 | 119.17825 | 16005 ft | 378 kts | 214° |
| 2026-05-07 04:02 | -17.40124 | 119.16351 | 16011 ft | 378 kts | 214° |
| 2026-05-07 04:03 | -17.42361 | 119.14895 | 16002 ft | 378 kts | 214° |
| 2026-05-07 04:03 | -17.44599 | 119.13437 | 16005 ft | 378 kts | 214° |
| 2026-05-07 04:03 | -17.46802 | 119.12002 | 16008 ft | 378 kts | 214° |
| 2026-05-07 04:03 | -17.49041 | 119.10543 | 16008 ft | 378 kts | 214° |
| 2026-05-07 04:04 | -17.51278 | 119.09085 | 16014 ft | 378 kts | 214° |
| 2026-05-07 04:04 | -17.53513 | 119.07628 | 16013 ft | 378 kts | 214° |
| 2026-05-07 04:04 | -17.55745 | 119.06172 | 16010 ft | 378 kts | 214° |
| 2026-05-07 04:04 | -17.57975 | 119.04717 | 16006 ft | 378 kts | 214° |
| 2026-05-07 04:05 | -17.60207 | 119.03260 | 16009 ft | 377 kts | 214° |
| 2026-05-07 04:05 | -17.62435 | 119.01806 | 16015 ft | 377 kts | 214° |
| 2026-05-07 04:05 | -17.64661 | 119.00352 | 16008 ft | 377 kts | 214° |
| 2026-05-07 04:05 | -17.66888 | 118.98889 | 16009 ft | 377 kts | 216° |
| 2026-05-07 04:06 | -17.68941 | 118.97209 | 16003 ft | 374 kts | 225° |
| 2026-05-07 04:06 | -17.70778 | 118.95317 | 16010 ft | 374 kts | 227° |
| 2026-05-07 04:06 | -17.72631 | 118.93357 | 16007 ft | 374 kts | 227° |
| 2026-05-07 04:06 | -17.74458 | 118.91414 | 16006 ft | 374 kts | 227° |
| 2026-05-07 04:07 | -17.76262 | 118.89499 | 16007 ft | 374 kts | 227° |
| 2026-05-07 04:07 | -17.78093 | 118.87561 | 16009 ft | 374 kts | 227° |
| 2026-05-07 04:07 | -17.79929 | 118.85624 | 16006 ft | 374 kts | 227° |
| 2026-05-07 04:07 | -17.81765 | 118.83691 | 16007 ft | 374 kts | 227° |
| 2026-05-07 04:08 | -17.83603 | 118.81760 | 16008 ft | 374 kts | 227° |
| 2026-05-07 04:08 | -17.85443 | 118.79827 | 16006 ft | 374 kts | 227° |
| 2026-05-07 04:08 | -17.87281 | 118.77898 | 16005 ft | 373 kts | 227° |
| 2026-05-07 04:08 | -17.89117 | 118.75970 | 16008 ft | 373 kts | 227° |
| 2026-05-07 04:09 | -17.90951 | 118.74045 | 16007 ft | 373 kts | 227° |
| 2026-05-07 04:09 | -17.92785 | 118.72119 | 16005 ft | 373 kts | 227° |
| 2026-05-07 04:09 | -17.94615 | 118.70196 | 16007 ft | 373 kts | 227° |
| 2026-05-07 04:09 | -17.96449 | 118.68267 | 16005 ft | 373 kts | 227° |
| 2026-05-07 04:10 | -17.98283 | 118.66340 | 16004 ft | 372 kts | 227° |
| 2026-05-07 04:10 | -18.00113 | 118.64415 | 16005 ft | 372 kts | 227° |
| 2026-05-07 04:10 | -18.01945 | 118.62489 | 16009 ft | 372 kts | 227° |
| 2026-05-07 04:10 | -18.03771 | 118.60568 | 16006 ft | 372 kts | 227° |
| 2026-05-07 04:11 | -18.05601 | 118.58641 | 16008 ft | 372 kts | 227° |
| 2026-05-07 04:11 | -18.07431 | 118.56714 | 16010 ft | 372 kts | 227° |
| 2026-05-07 04:11 | -18.09263 | 118.54785 | 16013 ft | 372 kts | 227° |
| 2026-05-07 04:11 | -18.11088 | 118.52862 | 16010 ft | 372 kts | 227° |
| 2026-05-07 04:12 | -18.12920 | 118.50931 | 16010 ft | 372 kts | 227° |
| 2026-05-07 04:12 | -18.14726 | 118.49027 | 16009 ft | 372 kts | 227° |
| 2026-05-07 04:12 | -18.16560 | 118.47092 | 16008 ft | 372 kts | 227° |
| 2026-05-07 04:12 | -18.18387 | 118.45165 | 16009 ft | 372 kts | 227° |
| 2026-05-07 04:13 | -18.20216 | 118.43235 | 16008 ft | 372 kts | 227° |
| 2026-05-07 04:13 | -18.22043 | 118.41307 | 16012 ft | 372 kts | 227° |
| 2026-05-07 04:13 | -18.23873 | 118.39375 | 16013 ft | 372 kts | 227° |
| 2026-05-07 04:13 | -18.25703 | 118.37443 | 16013 ft | 372 kts | 227° |
| 2026-05-07 04:14 | -18.27529 | 118.35514 | 16013 ft | 372 kts | 227° |
| 2026-05-07 04:14 | -18.29353 | 118.33586 | 16013 ft | 372 kts | 227° |
| 2026-05-07 04:14 | -18.31176 | 118.31659 | 16009 ft | 371 kts | 227° |
| 2026-05-07 04:14 | -18.32979 | 118.29752 | 16014 ft | 371 kts | 227° |
| 2026-05-07 04:15 | -18.34800 | 118.27826 | 16012 ft | 371 kts | 227° |
| 2026-05-07 04:15 | -18.36626 | 118.25894 | 16014 ft | 371 kts | 227° |
| 2026-05-07 04:15 | -18.38446 | 118.23966 | 16014 ft | 371 kts | 227° |
| 2026-05-07 04:15 | -18.40273 | 118.22032 | 16016 ft | 371 kts | 227° |
| 2026-05-07 04:16 | -18.42093 | 118.20104 | 16015 ft | 371 kts | 227° |
| 2026-05-07 04:16 | -18.43910 | 118.18178 | 16015 ft | 371 kts | 227° |
| 2026-05-07 04:16 | -18.45733 | 118.16246 | 16018 ft | 371 kts | 227° |
| 2026-05-07 04:16 | -18.47525 | 118.14348 | 16014 ft | 370 kts | 227° |
| 2026-05-07 04:17 | -18.49345 | 118.12418 | 16010 ft | 370 kts | 227° |
| 2026-05-07 04:17 | -18.50573 | 118.11115 | 16010 ft | 370 kts | 227° |
| 2026-05-07 04:17 | -18.52366 | 118.09212 | 16009 ft | 370 kts | 227° |
| 2026-05-07 04:17 | -18.54792 | 118.06637 | 16008 ft | 370 kts | 227° |
| 2026-05-07 04:18 | -18.55994 | 118.05360 | 16012 ft | 370 kts | 227° |
| 2026-05-07 04:18 | -18.57807 | 118.03434 | 16014 ft | 370 kts | 227° |
| 2026-05-07 04:18 | -18.59623 | 118.01505 | 16015 ft | 370 kts | 227° |
| 2026-05-07 04:18 | -18.61437 | 117.99578 | 16016 ft | 370 kts | 227° |
| 2026-05-07 04:19 | -18.63249 | 117.97650 | 16014 ft | 370 kts | 227° |
| 2026-05-07 04:19 | -18.65060 | 117.95724 | 16013 ft | 370 kts | 227° |
| 2026-05-07 04:19 | -18.66872 | 117.93796 | 16014 ft | 370 kts | 227° |
| 2026-05-07 04:19 | -18.68684 | 117.91867 | 16013 ft | 369 kts | 227° |
| 2026-05-07 04:20 | -18.70473 | 117.89964 | 16015 ft | 369 kts | 227° |
| 2026-05-07 04:20 | -18.72282 | 117.88038 | 16010 ft | 369 kts | 227° |
| 2026-05-07 04:20 | -18.74087 | 117.86115 | 16014 ft | 369 kts | 227° |
| 2026-05-07 04:21 | -18.77699 | 117.82265 | 16011 ft | 369 kts | 227° |
| 2026-05-07 04:21 | -18.79507 | 117.80338 | 16014 ft | 369 kts | 227° |
| 2026-05-07 04:21 | -18.81314 | 117.78410 | 16019 ft | 369 kts | 227° |
| 2026-05-07 04:21 | -18.83112 | 117.76491 | 16015 ft | 368 kts | 227° |
| 2026-05-07 04:22 | -18.84922 | 117.74559 | 16014 ft | 368 kts | 227° |
| 2026-05-07 04:22 | -18.86702 | 117.72659 | 16017 ft | 368 kts | 227° |
| 2026-05-07 04:22 | -18.88524 | 117.70713 | 16014 ft | 368 kts | 227° |
| 2026-05-07 04:22 | -18.90325 | 117.68789 | 16018 ft | 368 kts | 227° |
| 2026-05-07 04:23 | -18.92105 | 117.66888 | 16017 ft | 368 kts | 227° |
| 2026-05-07 04:23 | -18.93904 | 117.64965 | 16015 ft | 368 kts | 227° |
| 2026-05-07 04:23 | -18.95707 | 117.63037 | 16019 ft | 368 kts | 227° |
| 2026-05-07 04:23 | -18.97506 | 117.61112 | 16021 ft | 368 kts | 227° |
| 2026-05-07 04:24 | -18.99307 | 117.59184 | 16017 ft | 368 kts | 227° |
| 2026-05-07 04:24 | -19.01108 | 117.57256 | 16018 ft | 368 kts | 227° |
| 2026-05-07 04:24 | -19.02911 | 117.55325 | 16021 ft | 368 kts | 227° |
| 2026-05-07 04:24 | -19.04709 | 117.53399 | 16017 ft | 368 kts | 227° |
| 2026-05-07 04:25 | -19.06507 | 117.51473 | 16020 ft | 368 kts | 227° |
| 2026-05-07 04:25 | -19.08307 | 117.49545 | 16024 ft | 368 kts | 227° |
| 2026-05-07 04:25 | -19.10103 | 117.47620 | 16023 ft | 368 kts | 227° |
| 2026-05-07 04:25 | -19.11904 | 117.45687 | 16021 ft | 368 kts | 227° |
| 2026-05-07 04:26 | -19.13683 | 117.43779 | 16022 ft | 368 kts | 227° |
| 2026-05-07 04:26 | -19.15478 | 117.41852 | 16024 ft | 368 kts | 227° |
| 2026-05-07 04:26 | -19.17280 | 117.39917 | 16029 ft | 368 kts | 227° |
| 2026-05-07 04:26 | -19.19075 | 117.37989 | 16025 ft | 368 kts | 227° |
| 2026-05-07 04:27 | -19.20870 | 117.36061 | 16017 ft | 368 kts | 227° |
| 2026-05-07 04:27 | -19.22664 | 117.34133 | 16028 ft | 368 kts | 227° |
| 2026-05-07 04:27 | -19.24463 | 117.32200 | 16019 ft | 368 kts | 227° |
| 2026-05-07 04:27 | -19.26256 | 117.30272 | 16024 ft | 368 kts | 227° |
| 2026-05-07 04:28 | -19.28052 | 117.28340 | 16019 ft | 368 kts | 227° |
| 2026-05-07 04:28 | -19.29843 | 117.26413 | 16026 ft | 367 kts | 227° |
| 2026-05-07 04:28 | -19.31641 | 117.24477 | 16020 ft | 367 kts | 227° |
| 2026-05-07 04:28 | -19.33411 | 117.22570 | 16025 ft | 367 kts | 227° |
| 2026-05-07 04:29 | -19.35202 | 117.20640 | 16024 ft | 368 kts | 227° |
| 2026-05-07 04:29 | -19.37018 | 117.18684 | 16028 ft | 368 kts | 227° |
| 2026-05-07 04:29 | -19.38789 | 117.16775 | 16028 ft | 368 kts | 227° |
| 2026-05-07 04:29 | -19.40581 | 117.14843 | 16021 ft | 368 kts | 227° |
| 2026-05-07 04:30 | -19.42374 | 117.12909 | 16018 ft | 368 kts | 227° |
| 2026-05-07 04:30 | -19.44169 | 117.10973 | 16034 ft | 368 kts | 227° |
| 2026-05-07 04:30 | -19.45963 | 117.09036 | 16021 ft | 368 kts | 227° |
| 2026-05-07 04:30 | -19.47759 | 117.07097 | 16029 ft | 368 kts | 227° |
| 2026-05-07 04:31 | -19.49548 | 117.05165 | 16020 ft | 368 kts | 227° |
| 2026-05-07 04:31 | -19.51339 | 117.03230 | 16025 ft | 367 kts | 227° |
| 2026-05-07 04:31 | -19.53131 | 117.01294 | 16024 ft | 368 kts | 227° |
| 2026-05-07 04:31 | -19.54918 | 116.99362 | 16023 ft | 368 kts | 227° |
| 2026-05-07 04:32 | -19.56715 | 116.97419 | 16029 ft | 368 kts | 227° |
| 2026-05-07 04:32 | -19.58505 | 116.95481 | 16022 ft | 368 kts | 227° |
| 2026-05-07 04:32 | -19.60275 | 116.93567 | 16022 ft | 368 kts | 227° |
| 2026-05-07 04:32 | -19.62064 | 116.91630 | 16023 ft | 367 kts | 227° |
| 2026-05-07 04:33 | -19.63857 | 116.89687 | 16026 ft | 368 kts | 226° |
| 2026-05-07 04:33 | -19.65651 | 116.87743 | 16025 ft | 370 kts | 226° |
| 2026-05-07 04:33 | -19.67458 | 116.85784 | 16039 ft | 373 kts | 226° |
| 2026-05-07 04:33 | -19.69278 | 116.83811 | 16028 ft | 375 kts | 226° |
| 2026-05-07 04:34 | -19.71102 | 116.81832 | 16025 ft | 376 kts | 226° |
| 2026-05-07 04:34 | -19.72938 | 116.79841 | 16032 ft | 377 kts | 226° |
| 2026-05-07 04:34 | -19.74773 | 116.77849 | 16026 ft | 377 kts | 226° |
| 2026-05-07 04:34 | -19.76608 | 116.75858 | 16022 ft | 376 kts | 226° |
| 2026-05-07 04:35 | -19.78435 | 116.73874 | 16023 ft | 376 kts | 226° |
| 2026-05-07 04:35 | -19.80260 | 116.71891 | 16022 ft | 375 kts | 226° |
| 2026-05-07 04:35 | -19.82058 | 116.69938 | 16026 ft | 374 kts | 226° |
| 2026-05-07 04:35 | -19.83873 | 116.67965 | 16026 ft | 374 kts | 226° |
| 2026-05-07 04:36 | -19.85688 | 116.65992 | 16026 ft | 373 kts | 226° |
| 2026-05-07 04:36 | -19.87506 | 116.64013 | 16028 ft | 373 kts | 226° |
| 2026-05-07 04:36 | -19.89322 | 116.62037 | 16029 ft | 373 kts | 226° |
| 2026-05-07 04:36 | -19.91139 | 116.60059 | 16029 ft | 374 kts | 226° |
| 2026-05-07 04:37 | -19.92956 | 116.58079 | 16031 ft | 374 kts | 226° |
| 2026-05-07 04:37 | -19.94769 | 116.56105 | 16032 ft | 374 kts | 226° |
| 2026-05-07 04:37 | -19.96586 | 116.54124 | 16029 ft | 374 kts | 226° |
| 2026-05-07 04:37 | -19.98401 | 116.52146 | 16032 ft | 374 kts | 226° |
| 2026-05-07 04:38 | -20.00219 | 116.50164 | 16028 ft | 374 kts | 226° |
| 2026-05-07 04:38 | -20.02039 | 116.48178 | 16027 ft | 374 kts | 226° |
| 2026-05-07 04:38 | -20.03834 | 116.46219 | 16033 ft | 374 kts | 226° |
| 2026-05-07 04:38 | -20.05651 | 116.44235 | 16027 ft | 374 kts | 226° |
| 2026-05-07 04:39 | -20.07472 | 116.42246 | 16026 ft | 374 kts | 226° |
| 2026-05-07 04:39 | -20.09289 | 116.40261 | 16032 ft | 374 kts | 226° |
| 2026-05-07 04:39 | -20.11101 | 116.38280 | 16030 ft | 374 kts | 226° |
| 2026-05-07 04:39 | -20.12916 | 116.36297 | 16031 ft | 374 kts | 226° |
| 2026-05-07 04:40 | -20.14727 | 116.34315 | 16025 ft | 374 kts | 226° |
| 2026-05-07 04:40 | -20.16541 | 116.32331 | 16032 ft | 374 kts | 226° |
| 2026-05-07 04:40 | -20.18354 | 116.30348 | 16032 ft | 374 kts | 226° |
| 2026-05-07 04:40 | -20.20167 | 116.28362 | 16033 ft | 374 kts | 226° |
| 2026-05-07 04:41 | -20.21979 | 116.26378 | 16029 ft | 374 kts | 226° |
| 2026-05-07 04:41 | -20.23768 | 116.24419 | 16028 ft | 374 kts | 226° |
| 2026-05-07 04:41 | -20.25601 | 116.22410 | 16030 ft | 374 kts | 226° |
| 2026-05-07 04:41 | -20.27415 | 116.20421 | 16027 ft | 373 kts | 227° |
| 2026-05-07 04:42 | -20.29199 | 116.18464 | 16026 ft | 373 kts | 227° |
| 2026-05-07 04:42 | -20.31011 | 116.16476 | 16031 ft | 374 kts | 227° |
| 2026-05-07 04:42 | -20.32821 | 116.14489 | 16034 ft | 374 kts | 227° |
| 2026-05-07 04:42 | -20.34635 | 116.12498 | 16032 ft | 374 kts | 226° |
| 2026-05-07 04:43 | -20.36445 | 116.10509 | 16033 ft | 374 kts | 226° |
| 2026-05-07 04:43 | -20.38254 | 116.08522 | 16032 ft | 373 kts | 227° |
| 2026-05-07 04:43 | -20.40061 | 116.06536 | 16027 ft | 373 kts | 226° |
| 2026-05-07 04:43 | -20.41868 | 116.04550 | 16028 ft | 373 kts | 227° |
| 2026-05-07 04:44 | -20.43674 | 116.02563 | 16031 ft | 373 kts | 227° |
| 2026-05-07 04:44 | -20.45480 | 116.00577 | 16033 ft | 373 kts | 226° |
| 2026-05-07 04:44 | -20.47285 | 115.98590 | 16034 ft | 372 kts | 227° |
| 2026-05-07 04:44 | -20.49086 | 115.96606 | 16030 ft | 372 kts | 227° |
| 2026-05-07 04:45 | -20.50893 | 115.94615 | 16028 ft | 373 kts | 227° |
| 2026-05-07 04:45 | -20.52692 | 115.92632 | 16028 ft | 372 kts | 227° |
| 2026-05-07 04:45 | -20.54474 | 115.90668 | 16031 ft | 373 kts | 227° |
| 2026-05-07 04:45 | -20.56278 | 115.88679 | 16031 ft | 373 kts | 227° |
| 2026-05-07 04:46 | -20.58081 | 115.86690 | 16030 ft | 373 kts | 227° |
| 2026-05-07 04:46 | -20.59871 | 115.84684 | 16031 ft | 373 kts | 229° |
| 2026-05-07 04:46 | -20.61513 | 115.82548 | 16035 ft | 372 kts | 232° |
| 2026-05-07 04:46 | -20.63108 | 115.80370 | 16035 ft | 372 kts | 233° |
| 2026-05-07 04:47 | -20.64692 | 115.78178 | 16033 ft | 372 kts | 233° |
| 2026-05-07 04:47 | -20.66282 | 115.75976 | 16028 ft | 372 kts | 233° |
| 2026-05-07 04:47 | -20.67865 | 115.73789 | 16026 ft | 372 kts | 233° |
| 2026-05-07 04:47 | -20.69455 | 115.71599 | 16027 ft | 372 kts | 233° |
| 2026-05-07 04:48 | -20.71044 | 115.69416 | 16032 ft | 372 kts | 233° |
| 2026-05-07 04:48 | -20.72613 | 115.67263 | 16023 ft | 372 kts | 232° |
| 2026-05-07 04:48 | -20.74202 | 115.65085 | 16029 ft | 372 kts | 233° |
| 2026-05-07 04:48 | -20.75793 | 115.62904 | 16027 ft | 372 kts | 232° |
| 2026-05-07 04:49 | -20.77385 | 115.60722 | 16030 ft | 372 kts | 232° |
| 2026-05-07 04:49 | -20.78976 | 115.58541 | 16024 ft | 372 kts | 233° |
| 2026-05-07 04:49 | -20.80568 | 115.56358 | 16026 ft | 372 kts | 233° |
| 2026-05-07 04:49 | -20.82161 | 115.54172 | 16034 ft | 372 kts | 233° |
| 2026-05-07 04:50 | -20.83751 | 115.51991 | 16032 ft | 372 kts | 233° |
| 2026-05-07 04:50 | -20.85345 | 115.49804 | 16032 ft | 372 kts | 233° |
| 2026-05-07 04:50 | -20.86936 | 115.47619 | 16034 ft | 372 kts | 233° |
| 2026-05-07 04:50 | -20.88526 | 115.45434 | 16030 ft | 372 kts | 233° |
| 2026-05-07 04:51 | -20.90098 | 115.43274 | 16034 ft | 372 kts | 233° |
| 2026-05-07 04:51 | -20.91689 | 115.41085 | 16038 ft | 372 kts | 233° |
| 2026-05-07 04:51 | -20.93277 | 115.38901 | 16030 ft | 372 kts | 233° |
| 2026-05-07 04:51 | -20.94870 | 115.36709 | 16036 ft | 372 kts | 233° |
| 2026-05-07 04:52 | -20.96458 | 115.34522 | 16036 ft | 372 kts | 233° |
| 2026-05-07 04:52 | -20.98049 | 115.32332 | 16029 ft | 373 kts | 233° |
| 2026-05-07 04:52 | -20.99640 | 115.30140 | 16028 ft | 373 kts | 233° |
| 2026-05-07 04:52 | -21.01232 | 115.27946 | 16037 ft | 373 kts | 233° |
| 2026-05-07 04:53 | -21.02822 | 115.25754 | 16036 ft | 373 kts | 233° |
| 2026-05-07 04:53 | -21.04411 | 115.23563 | 16034 ft | 373 kts | 233° |
| 2026-05-07 04:53 | -21.06003 | 115.21367 | 16033 ft | 373 kts | 233° |
| 2026-05-07 04:53 | -21.07593 | 115.19172 | 16037 ft | 373 kts | 233° |
| 2026-05-07 04:54 | -21.09181 | 115.16979 | 16036 ft | 373 kts | 233° |
| 2026-05-07 04:54 | -21.10755 | 115.14805 | 16037 ft | 373 kts | 233° |
| 2026-05-07 04:54 | -21.12346 | 115.12606 | 16030 ft | 373 kts | 233° |
| 2026-05-07 04:54 | -21.13938 | 115.10405 | 16034 ft | 373 kts | 233° |
| 2026-05-07 04:55 | -21.15525 | 115.08211 | 16036 ft | 373 kts | 233° |
| 2026-05-07 04:55 | -21.17114 | 115.06012 | 16034 ft | 373 kts | 233° |
| 2026-05-07 04:55 | -21.18704 | 115.03812 | 16032 ft | 373 kts | 233° |
| 2026-05-07 04:55 | -21.20295 | 115.01608 | 16031 ft | 373 kts | 233° |
| 2026-05-07 04:56 | -21.21885 | 114.99407 | 16030 ft | 372 kts | 233° |
| 2026-05-07 04:56 | -21.23472 | 114.97206 | 16033 ft | 372 kts | 233° |
| 2026-05-07 04:56 | -21.25039 | 114.95034 | 16032 ft | 372 kts | 233° |
| 2026-05-07 04:56 | -21.26620 | 114.92841 | 16034 ft | 372 kts | 233° |
| 2026-05-07 04:57 | -21.28203 | 114.90645 | 16034 ft | 372 kts | 233° |
| 2026-05-07 04:57 | -21.29788 | 114.88445 | 16035 ft | 372 kts | 233° |
| 2026-05-07 04:57 | -21.31371 | 114.86247 | 16034 ft | 372 kts | 233° |
| 2026-05-07 04:57 | -21.32953 | 114.84050 | 16033 ft | 372 kts | 233° |
| 2026-05-07 04:58 | -21.34535 | 114.81851 | 16035 ft | 372 kts | 233° |
| 2026-05-07 04:58 | -21.36118 | 114.79651 | 16046 ft | 372 kts | 233° |
| 2026-05-07 04:58 | -21.37706 | 114.77443 | 16036 ft | 373 kts | 233° |
| 2026-05-07 04:58 | -21.39288 | 114.75241 | 16035 ft | 373 kts | 233° |
| 2026-05-07 04:59 | -21.40872 | 114.73037 | 16040 ft | 373 kts | 233° |
| 2026-05-07 04:59 | -21.42455 | 114.70833 | 16039 ft | 373 kts | 233° |
| 2026-05-07 04:59 | -21.44040 | 114.68624 | 16037 ft | 373 kts | 233° |
| 2026-05-07 04:59 | -21.45601 | 114.66449 | 16035 ft | 373 kts | 233° |
| 2026-05-07 05:00 | -21.47203 | 114.64215 | 16038 ft | 373 kts | 233° |
| 2026-05-07 05:00 | -21.48764 | 114.62038 | 16037 ft | 373 kts | 233° |
| 2026-05-07 05:00 | -21.50366 | 114.59803 | 16032 ft | 373 kts | 233° |
| 2026-05-07 05:00 | -21.51925 | 114.57627 | 16035 ft | 373 kts | 233° |
| 2026-05-07 05:01 | -21.53505 | 114.55420 | 16038 ft | 373 kts | 233° |
| 2026-05-07 05:01 | -21.55087 | 114.53209 | 16042 ft | 372 kts | 233° |
| 2026-05-07 05:01 | -21.56668 | 114.51000 | 16039 ft | 373 kts | 233° |
| 2026-05-07 05:01 | -21.58247 | 114.48793 | 16039 ft | 373 kts | 233° |
| 2026-05-07 05:02 | -21.59827 | 114.46584 | 16039 ft | 373 kts | 233° |
| 2026-05-07 05:02 | -21.61129 | 114.44195 | 16033 ft | 372 kts | 250° |
| 2026-05-07 05:02 | -21.61604 | 114.41478 | 16042 ft | 372 kts | 269° |
| 2026-05-07 05:02 | -21.61258 | 114.38731 | 16052 ft | 373 kts | 285° |
| 2026-05-07 05:03 | -21.60167 | 114.36207 | 16040 ft | 375 kts | 302° |
| 2026-05-07 05:03 | -21.58653 | 114.33912 | 16041 ft | 376 kts | 305° |
| 2026-05-07 05:03 | -21.57074 | 114.31663 | 16035 ft | 377 kts | 306° |
| 2026-05-07 05:03 | -21.55479 | 114.29428 | 16037 ft | 377 kts | 306° |
| 2026-05-07 05:04 | -21.53887 | 114.27196 | 16039 ft | 377 kts | 306° |
| 2026-05-07 05:04 | -21.52834 | 114.25712 | 16041 ft | 377 kts | 306° |
| 2026-05-07 05:04 | -21.50736 | 114.22733 | 16040 ft | 377 kts | 305° |
| 2026-05-07 05:04 | -21.49162 | 114.20484 | 16037 ft | 377 kts | 305° |
| 2026-05-07 05:05 | -21.48099 | 114.18960 | 16038 ft | 377 kts | 305° |
| 2026-05-07 05:05 | -21.46523 | 114.16700 | 16036 ft | 377 kts | 305° |
| 2026-05-07 05:05 | -21.44955 | 114.14447 | 16036 ft | 377 kts | 305° |
| 2026-05-07 05:05 | -21.43405 | 114.12219 | 16036 ft | 377 kts | 305° |
| 2026-05-07 05:06 | -21.41837 | 114.09965 | 16038 ft | 377 kts | 305° |
| 2026-05-07 05:06 | -21.40265 | 114.07708 | 16038 ft | 377 kts | 305° |
| 2026-05-07 05:06 | -21.38695 | 114.05454 | 16032 ft | 377 kts | 305° |
| 2026-05-07 05:06 | -21.37125 | 114.03201 | 16036 ft | 377 kts | 305° |
| 2026-05-07 05:07 | -21.35552 | 114.00944 | 16029 ft | 377 kts | 305° |
| 2026-05-07 05:07 | -21.33978 | 113.98688 | 16027 ft | 377 kts | 305° |
| 2026-05-07 05:07 | -21.32400 | 113.96428 | 16036 ft | 378 kts | 305° |
| 2026-05-07 05:07 | -21.30827 | 113.94174 | 16035 ft | 378 kts | 305° |
| 2026-05-07 05:08 | -21.29253 | 113.91920 | 16033 ft | 378 kts | 305° |
| 2026-05-07 05:08 | -21.27674 | 113.89660 | 16026 ft | 378 kts | 305° |
| 2026-05-07 05:08 | -21.26099 | 113.87407 | 16029 ft | 378 kts | 305° |
| 2026-05-07 05:08 | -21.24522 | 113.85151 | 16029 ft | 378 kts | 305° |
| 2026-05-07 05:09 | -21.22965 | 113.82924 | 16026 ft | 378 kts | 305° |
| 2026-05-07 05:09 | -21.21383 | 113.80662 | 16031 ft | 378 kts | 305° |
| 2026-05-07 05:09 | -21.19801 | 113.78404 | 16025 ft | 379 kts | 305° |
| 2026-05-07 05:09 | -21.18220 | 113.76147 | 16028 ft | 379 kts | 305° |
| 2026-05-07 05:10 | -21.16639 | 113.73888 | 16007 ft | 381 kts | 305° |
| 2026-05-07 05:10 | -21.15026 | 113.71586 | 16021 ft | 390 kts | 305° |
| 2026-05-07 05:10 | -21.13386 | 113.69246 | 16032 ft | 393 kts | 305° |
| 2026-05-07 05:10 | -21.11748 | 113.66911 | 16035 ft | 391 kts | 305° |
| 2026-05-07 05:11 | -21.10113 | 113.64582 | 16030 ft | 391 kts | 306° |
| 2026-05-07 05:11 | -21.08478 | 113.62253 | 16026 ft | 390 kts | 305° |
| 2026-05-07 05:11 | -21.06848 | 113.59932 | 16023 ft | 390 kts | 305° |
| 2026-05-07 05:11 | -21.05215 | 113.57608 | 16022 ft | 391 kts | 306° |
| 2026-05-07 05:12 | -21.03598 | 113.55308 | 16016 ft | 391 kts | 306° |
| 2026-05-07 05:12 | -21.01964 | 113.52983 | 16020 ft | 391 kts | 306° |
| 2026-05-07 05:12 | -21.00326 | 113.50653 | 16019 ft | 391 kts | 306° |
| 2026-05-07 05:12 | -20.98707 | 113.48353 | 16017 ft | 392 kts | 306° |
| 2026-05-07 05:13 | -20.97064 | 113.46018 | 16018 ft | 392 kts | 306° |
| 2026-05-07 05:13 | -20.95423 | 113.43690 | 16021 ft | 392 kts | 306° |
| 2026-05-07 05:13 | -20.93779 | 113.41358 | 16022 ft | 393 kts | 306° |
| 2026-05-07 05:13 | -20.92137 | 113.39028 | 16019 ft | 393 kts | 306° |
| 2026-05-07 05:14 | -20.90490 | 113.36690 | 16018 ft | 393 kts | 306° |
| 2026-05-07 05:14 | -20.88841 | 113.34352 | 16019 ft | 393 kts | 306° |
| 2026-05-07 05:14 | -20.87193 | 113.32016 | 16012 ft | 393 kts | 306° |
| 2026-05-07 05:14 | -20.85545 | 113.29682 | 16020 ft | 393 kts | 305° |
| 2026-05-07 05:15 | -20.83897 | 113.27350 | 16016 ft | 393 kts | 306° |
| 2026-05-07 05:15 | -20.82041 | 113.25252 | 16008 ft | 396 kts | 322° |
| 2026-05-07 05:15 | -20.79586 | 113.23919 | 16018 ft | 399 kts | 342° |
| 2026-05-07 05:15 | -20.76832 | 113.23532 | 16028 ft | 402 kts | 1° |
| 2026-05-07 05:16 | -20.74091 | 113.24146 | 16018 ft | 405 kts | 21° |
| 2026-05-07 05:16 | -20.71665 | 113.25661 | 16012 ft | 406 kts | 40° |
| 2026-05-07 05:16 | -20.69725 | 113.27852 | 16032 ft | 406 kts | 49° |
| 2026-05-07 05:16 | -20.67895 | 113.30155 | 16012 ft | 407 kts | 50° |
| 2026-05-07 05:17 | -20.66086 | 113.32476 | 16008 ft | 407 kts | 50° |
| 2026-05-07 05:17 | -20.64276 | 113.34806 | 16004 ft | 406 kts | 50° |
| 2026-05-07 05:17 | -20.62487 | 113.37094 | 16002 ft | 406 kts | 50° |
| 2026-05-07 05:17 | -20.60671 | 113.39403 | 16001 ft | 406 kts | 50° |
| 2026-05-07 05:18 | -20.58856 | 113.41698 | 16007 ft | 405 kts | 50° |
| 2026-05-07 05:18 | -20.57029 | 113.43997 | 16003 ft | 405 kts | 50° |
| 2026-05-07 05:18 | -20.55209 | 113.46281 | 16009 ft | 406 kts | 50° |
| 2026-05-07 05:18 | -20.53345 | 113.48617 | 16137 ft | 420 kts | 49° |
| 2026-05-07 05:19 | -20.51453 | 113.50985 | 16900 ft | 418 kts | 49° |
| 2026-05-07 05:19 | -20.49568 | 113.53343 | 17696 ft | 416 kts | 49° |
| 2026-05-07 05:19 | -20.47695 | 113.55686 | 18424 ft | 416 kts | 49° |
| 2026-05-07 05:19 | -20.45808 | 113.58045 | 18974 ft | 420 kts | 49° |
| 2026-05-07 05:20 | -20.43893 | 113.60436 | 19419 ft | 426 kts | 49° |
| 2026-05-07 05:20 | -20.41981 | 113.62824 | 19996 ft | 428 kts | 49° |
| 2026-05-07 05:20 | -20.40048 | 113.65238 | 20671 ft | 428 kts | 49° |
| 2026-05-07 05:20 | -20.38112 | 113.67654 | 21304 ft | 429 kts | 49° |
| 2026-05-07 05:21 | -20.36161 | 113.70087 | 21818 ft | 434 kts | 49° |
| 2026-05-07 05:21 | -20.32193 | 113.75033 | 22875 ft | 442 kts | 48° |
| 2026-05-07 05:21 | -20.30191 | 113.77527 | 23453 ft | 444 kts | 48° |
| 2026-05-07 05:22 | -20.28169 | 113.80045 | 23912 ft | 448 kts | 48° |
| 2026-05-07 05:22 | -20.26135 | 113.82577 | 24396 ft | 449 kts | 48° |
| 2026-05-07 05:22 | -20.24102 | 113.85106 | 24930 ft | 449 kts | 48° |
| 2026-05-07 05:22 | -20.22069 | 113.87635 | 25453 ft | 450 kts | 47° |
| 2026-05-07 05:23 | -20.20028 | 113.90172 | 25944 ft | 452 kts | 47° |
| 2026-05-07 05:23 | -20.17998 | 113.92694 | 26438 ft | 453 kts | 47° |
| 2026-05-07 05:23 | -20.15944 | 113.95246 | 26955 ft | 454 kts | 47° |
| 2026-05-07 05:23 | -20.13865 | 113.97825 | 27151 ft | 465 kts | 47° |
| 2026-05-07 05:24 | -20.11732 | 114.00468 | 27231 ft | 478 kts | 47° |
| 2026-05-07 05:24 | -20.09538 | 114.03186 | 27310 ft | 489 kts | 47° |
| 2026-05-07 05:24 | -20.07301 | 114.05956 | 27445 ft | 498 kts | 47° |
| 2026-05-07 05:24 | -20.05029 | 114.08772 | 27768 ft | 502 kts | 47° |
| 2026-05-07 05:25 | -20.02750 | 114.11597 | 28144 ft | 503 kts | 47° |
| 2026-05-07 05:25 | -20.00460 | 114.14435 | 28500 ft | 506 kts | 47° |
| 2026-05-07 05:25 | -19.98159 | 114.17284 | 28808 ft | 510 kts | 46° |
| 2026-05-07 05:25 | -19.95842 | 114.20150 | 29107 ft | 513 kts | 46° |
| 2026-05-07 05:26 | -19.93507 | 114.23036 | 29395 ft | 516 kts | 46° |
| 2026-05-07 05:26 | -19.91155 | 114.25942 | 29690 ft | 519 kts | 46° |
| 2026-05-07 05:26 | -19.88793 | 114.28859 | 29983 ft | 521 kts | 46° |
| 2026-05-07 05:27 | -19.84058 | 114.34700 | 29986 ft | 527 kts | 46° |
| 2026-05-07 05:27 | -19.79250 | 114.40629 | 30259 ft | 532 kts | 46° |
| 2026-05-07 05:27 | -19.76831 | 114.43609 | 30616 ft | 531 kts | 46° |
| 2026-05-07 05:28 | -19.74426 | 114.46572 | 30962 ft | 529 kts | 46° |
| 2026-05-07 05:28 | -19.69572 | 114.52542 | 30989 ft | 538 kts | 46° |
| 2026-05-07 05:29 | -19.64631 | 114.58612 | 30992 ft | 547 kts | 46° |
| 2026-05-07 05:29 | -19.59616 | 114.64768 | 30989 ft | 555 kts | 46° |
| 2026-05-07 05:30 | -19.54571 | 114.70956 | 30985 ft | 560 kts | 46° |
| 2026-05-07 05:30 | -19.49458 | 114.77222 | 30978 ft | 563 kts | 46° |
| 2026-05-07 05:31 | -19.44331 | 114.83498 | 30977 ft | 564 kts | 46° |
| 2026-05-07 05:31 | -19.39186 | 114.89788 | 30975 ft | 564 kts | 46° |
| 2026-05-07 05:32 | -19.34047 | 114.96065 | 30980 ft | 564 kts | 46° |
| 2026-05-07 05:32 | -19.28903 | 115.02341 | 30995 ft | 563 kts | 46° |
| 2026-05-07 05:33 | -19.23794 | 115.08567 | 30983 ft | 564 kts | 46° |
| 2026-05-07 05:33 | -19.18635 | 115.14847 | 30982 ft | 564 kts | 46° |
| 2026-05-07 05:34 | -19.13486 | 115.21109 | 30980 ft | 564 kts | 46° |
| 2026-05-07 05:34 | -19.08335 | 115.27367 | 30980 ft | 564 kts | 46° |
| 2026-05-07 05:35 | -19.03180 | 115.33624 | 30981 ft | 563 kts | 46° |
| 2026-05-07 05:35 | -18.98068 | 115.39821 | 30982 ft | 563 kts | 46° |
| 2026-05-07 05:36 | -18.92920 | 115.46057 | 30978 ft | 563 kts | 46° |
| 2026-05-07 05:36 | -18.87775 | 115.52282 | 30978 ft | 562 kts | 46° |
| 2026-05-07 05:37 | -18.82627 | 115.58504 | 30980 ft | 562 kts | 46° |
| 2026-05-07 05:37 | -18.77485 | 115.64713 | 30981 ft | 562 kts | 46° |
| 2026-05-07 05:38 | -18.72339 | 115.70921 | 30979 ft | 561 kts | 46° |
| 2026-05-07 05:38 | -18.67200 | 115.77114 | 30983 ft | 561 kts | 46° |
| 2026-05-07 05:39 | -18.62060 | 115.83302 | 30979 ft | 561 kts | 46° |
| 2026-05-07 05:39 | -18.56919 | 115.89484 | 30980 ft | 560 kts | 46° |
| 2026-05-07 05:40 | -18.51778 | 115.95661 | 30979 ft | 560 kts | 46° |
| 2026-05-07 05:40 | -18.46663 | 116.01801 | 30978 ft | 560 kts | 46° |
| 2026-05-07 05:41 | -18.41526 | 116.07960 | 30975 ft | 559 kts | 46° |
| 2026-05-07 05:41 | -18.36385 | 116.14118 | 30976 ft | 559 kts | 46° |
| 2026-05-07 05:42 | -18.31273 | 116.20236 | 30977 ft | 559 kts | 46° |
| 2026-05-07 05:42 | -18.28680 | 116.23337 | 31110 ft | 557 kts | 46° |
| 2026-05-07 05:42 | -18.26166 | 116.26344 | 31561 ft | 550 kts | 46° |
| 2026-05-07 05:42 | -18.23652 | 116.29349 | 32148 ft | 542 kts | 46° |
| 2026-05-07 05:43 | -18.21179 | 116.32306 | 32732 ft | 535 kts | 46° |
| 2026-05-07 05:43 | -18.18734 | 116.35225 | 33276 ft | 529 kts | 46° |
| 2026-05-07 05:43 | -18.16308 | 116.38119 | 33728 ft | 527 kts | 46° |
| 2026-05-07 05:43 | -18.13890 | 116.41000 | 34053 ft | 526 kts | 46° |
| 2026-05-07 05:44 | -18.11458 | 116.43897 | 34308 ft | 527 kts | 46° |
| 2026-05-07 05:44 | -18.09032 | 116.46785 | 34614 ft | 526 kts | 46° |
| 2026-05-07 05:44 | -18.06616 | 116.49662 | 34945 ft | 524 kts | 46° |
| 2026-05-07 05:45 | -18.01757 | 116.55442 | 34975 ft | 528 kts | 46° |
| 2026-05-07 05:45 | -17.96908 | 116.61209 | 34963 ft | 522 kts | 46° |
| 2026-05-07 05:46 | -17.92069 | 116.66957 | 34984 ft | 530 kts | 46° |
| 2026-05-07 05:46 | -17.87172 | 116.72765 | 34983 ft | 539 kts | 46° |
| 2026-05-07 05:47 | -17.82154 | 116.78714 | 34762 ft | 550 kts | 46° |
| 2026-05-07 05:47 | -17.79610 | 116.81728 | 34534 ft | 552 kts | 46° |
| 2026-05-07 05:47 | -17.77063 | 116.84747 | 34309 ft | 550 kts | 46° |
| 2026-05-07 05:47 | -17.74523 | 116.87757 | 34087 ft | 548 kts | 46° |
| 2026-05-07 05:48 | -17.71993 | 116.90752 | 33848 ft | 549 kts | 46° |
| 2026-05-07 05:48 | -17.69495 | 116.93706 | 33596 ft | 550 kts | 46° |
| 2026-05-07 05:48 | -17.66951 | 116.96714 | 33347 ft | 550 kts | 46° |
| 2026-05-07 05:48 | -17.64409 | 116.99717 | 33095 ft | 551 kts | 46° |
| 2026-05-07 05:49 | -17.61861 | 117.02727 | 32854 ft | 551 kts | 46° |
| 2026-05-07 05:49 | -17.59310 | 117.05738 | 32597 ft | 551 kts | 46° |
| 2026-05-07 05:49 | -17.56766 | 117.08740 | 32375 ft | 552 kts | 46° |
| 2026-05-07 05:49 | -17.54213 | 117.11752 | 32125 ft | 552 kts | 46° |
| 2026-05-07 05:50 | -17.51663 | 117.14758 | 31879 ft | 552 kts | 46° |
| 2026-05-07 05:50 | -17.49108 | 117.17769 | 31648 ft | 552 kts | 46° |
| 2026-05-07 05:50 | -17.46559 | 117.20772 | 31414 ft | 552 kts | 46° |
| 2026-05-07 05:50 | -17.44002 | 117.23782 | 31183 ft | 553 kts | 46° |
| 2026-05-07 05:51 | -17.41443 | 117.26794 | 31028 ft | 554 kts | 46° |
| 2026-05-07 05:51 | -17.36319 | 117.32819 | 30974 ft | 554 kts | 46° |
| 2026-05-07 05:52 | -17.31213 | 117.38819 | 30959 ft | 555 kts | 46° |
| 2026-05-07 05:52 | -17.26071 | 117.44856 | 30959 ft | 555 kts | 46° |
| 2026-05-07 05:53 | -17.20935 | 117.50881 | 30962 ft | 555 kts | 46° |
| 2026-05-07 05:53 | -17.16657 | 117.55895 | 30961 ft | 554 kts | 46° |
| 2026-05-07 05:54 | -17.11498 | 117.61937 | 30958 ft | 554 kts | 46° |
| 2026-05-07 05:54 | -17.06456 | 117.67962 | 30960 ft | 555 kts | 50° |
| 2026-05-07 05:55 | -17.01795 | 117.74411 | 30967 ft | 555 kts | 52° |
| 2026-05-07 05:55 | -16.97268 | 117.80959 | 30960 ft | 555 kts | 52° |
| 2026-05-07 05:56 | -16.92718 | 117.87481 | 30961 ft | 555 kts | 52° |
| 2026-05-07 05:56 | -16.88123 | 117.93972 | 30962 ft | 555 kts | 52° |
| 2026-05-07 05:57 | -16.83512 | 118.00444 | 30961 ft | 555 kts | 52° |
| 2026-05-07 05:57 | -16.78931 | 118.06871 | 30964 ft | 555 kts | 52° |
| 2026-05-07 05:58 | -16.74324 | 118.13336 | 30964 ft | 555 kts | 52° |
| 2026-05-07 05:58 | -16.69707 | 118.19812 | 30964 ft | 555 kts | 52° |
| 2026-05-07 05:59 | -16.65095 | 118.26276 | 30963 ft | 555 kts | 52° |
| 2026-05-07 05:59 | -16.60484 | 118.32731 | 30961 ft | 554 kts | 52° |
| 2026-05-07 06:00 | -16.55874 | 118.39178 | 30964 ft | 554 kts | 52° |
| 2026-05-07 06:00 | -16.51299 | 118.45571 | 30966 ft | 554 kts | 52° |
| 2026-05-07 06:01 | -16.46691 | 118.52005 | 30968 ft | 553 kts | 52° |
| 2026-05-07 06:01 | -16.42082 | 118.58434 | 30962 ft | 553 kts | 52° |
| 2026-05-07 06:02 | -16.37473 | 118.64857 | 30966 ft | 553 kts | 52° |
| 2026-05-07 06:02 | -16.32889 | 118.71239 | 30963 ft | 552 kts | 52° |
| 2026-05-07 06:03 | -16.28276 | 118.77657 | 30963 ft | 552 kts | 52° |
| 2026-05-07 06:03 | -16.23673 | 118.84056 | 30957 ft | 552 kts | 52° |
| 2026-05-07 06:04 | -16.19065 | 118.90454 | 30968 ft | 552 kts | 52° |
| 2026-05-07 06:04 | -16.14456 | 118.96849 | 30962 ft | 552 kts | 52° |
| 2026-05-07 06:05 | -16.09853 | 119.03229 | 30974 ft | 551 kts | 52° |
| 2026-05-07 06:05 | -16.05272 | 119.09575 | 30955 ft | 551 kts | 52° |
| 2026-05-07 06:06 | -16.00668 | 119.15946 | 30964 ft | 551 kts | 51° |
| 2026-05-07 06:06 | -15.96060 | 119.22317 | 30969 ft | 551 kts | 51° |
| 2026-05-07 06:07 | -15.91456 | 119.28677 | 30966 ft | 550 kts | 51° |
| 2026-05-07 06:07 | -15.86847 | 119.35039 | 30952 ft | 550 kts | 51° |
| 2026-05-07 06:08 | -15.82263 | 119.41360 | 30967 ft | 550 kts | 51° |
| 2026-05-07 06:08 | -15.77654 | 119.47711 | 30951 ft | 550 kts | 51° |
| 2026-05-07 06:09 | -15.73041 | 119.54062 | 30951 ft | 550 kts | 51° |
| 2026-05-07 06:09 | -15.68430 | 119.60404 | 30957 ft | 550 kts | 51° |
| 2026-05-07 06:10 | -15.63817 | 119.66745 | 30958 ft | 550 kts | 51° |
| 2026-05-07 06:10 | -15.59207 | 119.73074 | 30955 ft | 549 kts | 51° |
| 2026-05-07 06:11 | -15.54628 | 119.79357 | 30954 ft | 549 kts | 51° |
| 2026-05-07 06:11 | -15.50016 | 119.85680 | 30950 ft | 549 kts | 51° |
| 2026-05-07 06:12 | -15.45404 | 119.91998 | 30953 ft | 549 kts | 51° |
| 2026-05-07 06:12 | -15.40790 | 119.98312 | 30948 ft | 549 kts | 51° |
| 2026-05-07 06:13 | -15.36213 | 120.04572 | 30949 ft | 548 kts | 51° |
| 2026-05-07 06:13 | -15.31598 | 120.10877 | 30957 ft | 548 kts | 51° |
| 2026-05-07 06:14 | -15.26990 | 120.17169 | 30949 ft | 548 kts | 51° |
| 2026-05-07 06:14 | -15.22376 | 120.23463 | 30957 ft | 547 kts | 51° |
| 2026-05-07 06:15 | -15.17767 | 120.29745 | 30959 ft | 547 kts | 51° |
| 2026-05-07 06:15 | -15.13161 | 120.36018 | 30957 ft | 547 kts | 51° |
| 2026-05-07 06:16 | -15.08550 | 120.42292 | 30950 ft | 547 kts | 51° |
| 2026-05-07 06:16 | -15.03967 | 120.48523 | 30948 ft | 547 kts | 51° |
| 2026-05-07 06:17 | -14.99352 | 120.54793 | 30947 ft | 546 kts | 51° |
| 2026-05-07 06:17 | -14.94748 | 120.61044 | 30938 ft | 546 kts | 51° |
| 2026-05-07 06:18 | -14.90141 | 120.67293 | 30936 ft | 546 kts | 51° |
| 2026-05-07 06:18 | -14.85532 | 120.73539 | 30943 ft | 546 kts | 51° |
| 2026-05-07 06:19 | -14.80950 | 120.79745 | 30943 ft | 546 kts | 51° |
| 2026-05-07 06:19 | -14.76339 | 120.85984 | 30943 ft | 545 kts | 51° |
| 2026-05-07 06:20 | -14.71734 | 120.92212 | 30945 ft | 545 kts | 51° |
| 2026-05-07 06:20 | -14.67128 | 120.98434 | 30937 ft | 545 kts | 51° |
| 2026-05-07 06:21 | -14.62514 | 121.04664 | 30941 ft | 545 kts | 51° |
| 2026-05-07 06:21 | -14.57931 | 121.10847 | 30936 ft | 544 kts | 51° |
| 2026-05-07 06:22 | -14.53320 | 121.17061 | 30936 ft | 544 kts | 51° |
| 2026-05-07 06:22 | -14.46415 | 121.26361 | 30938 ft | 544 kts | 51° |
| 2026-05-07 06:23 | -14.41840 | 121.32515 | 30934 ft | 543 kts | 51° |
| 2026-05-07 06:23 | -14.37238 | 121.38703 | 30933 ft | 543 kts | 51° |
| 2026-05-07 06:24 | -14.32634 | 121.44886 | 30931 ft | 543 kts | 51° |
| 2026-05-07 06:24 | -14.28030 | 121.51067 | 30933 ft | 543 kts | 50° |
| 2026-05-07 06:25 | -14.23425 | 121.57244 | 30930 ft | 542 kts | 50° |
| 2026-05-07 06:25 | -14.18856 | 121.63368 | 30929 ft | 542 kts | 50° |
| 2026-05-07 06:26 | -14.14258 | 121.69526 | 30926 ft | 542 kts | 50° |
| 2026-05-07 06:26 | -14.09660 | 121.75679 | 30926 ft | 541 kts | 50° |
| 2026-05-07 06:27 | -14.05060 | 121.81831 | 30924 ft | 541 kts | 50° |
| 2026-05-07 06:27 | -14.00497 | 121.87928 | 30926 ft | 540 kts | 50° |
| 2026-05-07 06:28 | -13.95897 | 121.94071 | 30926 ft | 540 kts | 50° |
| 2026-05-07 06:28 | -13.91302 | 122.00202 | 30923 ft | 540 kts | 50° |
| 2026-05-07 06:29 | -13.86716 | 122.06318 | 30922 ft | 540 kts | 50° |
| 2026-05-07 06:29 | -13.82155 | 122.12394 | 30920 ft | 539 kts | 50° |
| 2026-05-07 06:30 | -13.77568 | 122.18502 | 30917 ft | 539 kts | 50° |
| 2026-05-07 06:30 | -13.72982 | 122.24604 | 30920 ft | 539 kts | 50° |
| 2026-05-07 06:31 | -13.68396 | 122.30701 | 30921 ft | 538 kts | 50° |
| 2026-05-07 06:31 | -13.63808 | 122.36796 | 30923 ft | 538 kts | 50° |
| 2026-05-07 06:32 | -13.59225 | 122.42881 | 30919 ft | 538 kts | 50° |
| 2026-05-07 06:32 | -13.54668 | 122.48927 | 30921 ft | 538 kts | 50° |
| 2026-05-07 06:33 | -13.50082 | 122.55007 | 30917 ft | 537 kts | 50° |
| 2026-05-07 06:33 | -13.45498 | 122.61081 | 30918 ft | 537 kts | 50° |
| 2026-05-07 06:34 | -13.40919 | 122.67143 | 30919 ft | 537 kts | 50° |
| 2026-05-07 06:34 | -13.36338 | 122.73204 | 30918 ft | 537 kts | 50° |
| 2026-05-07 06:35 | -13.31750 | 122.79270 | 30915 ft | 537 kts | 50° |
| 2026-05-07 06:35 | -13.27170 | 122.85321 | 30914 ft | 536 kts | 50° |
| 2026-05-07 06:36 | -13.22593 | 122.91364 | 30915 ft | 536 kts | 50° |
| 2026-05-07 06:36 | -13.18043 | 122.97369 | 30909 ft | 536 kts | 50° |
| 2026-05-07 06:37 | -13.13460 | 123.03412 | 30914 ft | 536 kts | 50° |
| 2026-05-07 06:37 | -13.08875 | 123.09455 | 30912 ft | 536 kts | 50° |
| 2026-05-07 06:38 | -13.04816 | 123.15875 | 30919 ft | 538 kts | 60° |
| 2026-05-07 06:38 | -13.01257 | 123.22624 | 30911 ft | 538 kts | 61° |
| 2026-05-07 06:39 | -12.97744 | 123.29337 | 30911 ft | 538 kts | 60° |
| 2026-05-07 06:39 | -12.94156 | 123.36079 | 30914 ft | 538 kts | 60° |
| 2026-05-07 06:40 | -12.90539 | 123.42804 | 30909 ft | 538 kts | 60° |
| 2026-05-07 06:40 | -12.86939 | 123.49479 | 30912 ft | 538 kts | 60° |
| 2026-05-07 06:41 | -12.83321 | 123.56190 | 30913 ft | 537 kts | 60° |
| 2026-05-07 06:41 | -12.79706 | 123.62896 | 30910 ft | 537 kts | 60° |
| 2026-05-07 06:42 | -12.76699 | 123.68470 | 30913 ft | 537 kts | 60° |
| 2026-05-07 06:42 | -12.73075 | 123.75186 | 30911 ft | 537 kts | 60° |
| 2026-05-07 06:43 | -12.69460 | 123.81878 | 30908 ft | 537 kts | 60° |
| 2026-05-07 06:43 | -12.65253 | 123.89660 | 30907 ft | 537 kts | 60° |
| 2026-05-07 06:44 | -12.62218 | 123.95270 | 30909 ft | 537 kts | 60° |
| 2026-05-07 06:44 | -12.58628 | 124.01901 | 30916 ft | 537 kts | 60° |
| 2026-05-07 06:45 | -12.55029 | 124.08544 | 30903 ft | 537 kts | 60° |
| 2026-05-07 06:45 | -12.51403 | 124.15231 | 30905 ft | 537 kts | 60° |
| 2026-05-07 06:46 | -12.47777 | 124.21914 | 30898 ft | 537 kts | 60° |
| 2026-05-07 06:46 | -12.44141 | 124.28612 | 30903 ft | 537 kts | 60° |
| 2026-05-07 06:47 | -12.40536 | 124.35246 | 30902 ft | 537 kts | 60° |
| 2026-05-07 06:47 | -12.36901 | 124.41930 | 30893 ft | 537 kts | 60° |
| 2026-05-07 06:48 | -12.33270 | 124.48603 | 30894 ft | 536 kts | 60° |
| 2026-05-07 06:48 | -12.29640 | 124.55268 | 30899 ft | 536 kts | 60° |
| 2026-05-07 06:49 | -12.26007 | 124.61935 | 30897 ft | 536 kts | 60° |
| 2026-05-07 06:49 | -12.22380 | 124.68587 | 30896 ft | 535 kts | 60° |
| 2026-05-07 06:50 | -12.18756 | 124.75227 | 30897 ft | 535 kts | 60° |
| 2026-05-07 06:50 | -12.15130 | 124.81866 | 30899 ft | 534 kts | 60° |
| 2026-05-07 06:51 | -12.11507 | 124.88496 | 30900 ft | 534 kts | 60° |
| 2026-05-07 06:51 | -12.07898 | 124.95095 | 30894 ft | 534 kts | 60° |
| 2026-05-07 06:52 | -12.04274 | 125.01717 | 30895 ft | 533 kts | 60° |
| 2026-05-07 06:52 | -12.00654 | 125.08326 | 30897 ft | 533 kts | 60° |
| 2026-05-07 06:53 | -11.97048 | 125.14906 | 30893 ft | 533 kts | 60° |
| 2026-05-07 06:53 | -11.93425 | 125.21513 | 30898 ft | 533 kts | 59° |
| 2026-05-07 06:54 | -11.89805 | 125.28109 | 30897 ft | 533 kts | 59° |
| 2026-05-07 06:54 | -11.86181 | 125.34709 | 30898 ft | 532 kts | 59° |
| 2026-05-07 06:55 | -11.82558 | 125.41301 | 30897 ft | 532 kts | 59° |
| 2026-05-07 06:55 | -11.78935 | 125.47888 | 30895 ft | 532 kts | 59° |
| 2026-05-07 06:56 | -11.75315 | 125.54467 | 30895 ft | 531 kts | 59° |
| 2026-05-07 06:56 | -11.71714 | 125.61007 | 30896 ft | 531 kts | 59° |
| 2026-05-07 06:57 | -11.68085 | 125.67591 | 30899 ft | 531 kts | 59° |
| 2026-05-07 06:57 | -11.64458 | 125.74169 | 30895 ft | 531 kts | 59° |
| 2026-05-07 06:58 | -11.60834 | 125.80737 | 30895 ft | 531 kts | 59° |
| 2026-05-07 06:58 | -11.57213 | 125.87294 | 30901 ft | 531 kts | 59° |
| 2026-05-07 06:59 | -11.53589 | 125.93854 | 30898 ft | 530 kts | 59° |
| 2026-05-07 06:59 | -11.49986 | 126.00371 | 30897 ft | 531 kts | 59° |
| 2026-05-07 07:00 | -11.46393 | 126.06865 | 30896 ft | 530 kts | 59° |
| 2026-05-07 07:00 | -11.42767 | 126.13413 | 30896 ft | 530 kts | 59° |
| 2026-05-07 07:01 | -11.39137 | 126.19967 | 30896 ft | 530 kts | 59° |
| 2026-05-07 07:01 | -11.35528 | 126.26478 | 30898 ft | 530 kts | 59° |
| 2026-05-07 07:02 | -11.31898 | 126.33021 | 30899 ft | 530 kts | 59° |
| 2026-05-07 07:02 | -11.28266 | 126.39565 | 30893 ft | 529 kts | 59° |
| 2026-05-07 07:03 | -11.24657 | 126.46063 | 30889 ft | 529 kts | 59° |
| 2026-05-07 07:03 | -11.21031 | 126.52587 | 30896 ft | 529 kts | 59° |
| 2026-05-07 07:04 | -11.17404 | 126.59109 | 30899 ft | 528 kts | 59° |
| 2026-05-07 07:04 | -11.13784 | 126.65614 | 30893 ft | 528 kts | 59° |
| 2026-05-07 07:05 | -11.10183 | 126.72082 | 30895 ft | 527 kts | 59° |
| 2026-05-07 07:05 | -11.06564 | 126.78578 | 30891 ft | 527 kts | 59° |
| 2026-05-07 07:06 | -11.02949 | 126.85064 | 30895 ft | 526 kts | 59° |
| 2026-05-07 07:06 | -10.99931 | 126.91785 | 30890 ft | 528 kts | 78° |
| 2026-05-07 07:07 | -10.99654 | 126.95508 | 30897 ft | 527 kts | 95° |
| 2026-05-07 07:07 | -11.00300 | 126.99159 | 30907 ft | 524 kts | 110° |
| 2026-05-07 07:07 | -11.01795 | 127.02518 | 30895 ft | 519 kts | 125° |
| 2026-05-07 07:07 | -11.03978 | 127.05401 | 30905 ft | 513 kts | 137° |
| 2026-05-07 07:08 | -11.06711 | 127.07694 | 30897 ft | 505 kts | 152° |
| 2026-05-07 07:08 | -11.09786 | 127.09374 | 30907 ft | 501 kts | 158° |
| 2026-05-07 07:08 | -11.16100 | 127.12447 | 30889 ft | 502 kts | 159° |
| 2026-05-07 07:09 | -11.22403 | 127.15544 | 30895 ft | 503 kts | 158° |
| 2026-05-07 07:09 | -11.28639 | 127.18705 | 30896 ft | 504 kts | 158° |
| 2026-05-07 07:10 | -11.34907 | 127.21909 | 30901 ft | 504 kts | 158° |
| 2026-05-07 07:10 | -11.41184 | 127.25109 | 30905 ft | 504 kts | 158° |
| 2026-05-07 07:11 | -11.47723 | 127.27304 | 30908 ft | 488 kts | 182° |
| 2026-05-07 07:11 | -11.51068 | 127.27046 | 30914 ft | 477 kts | 197° |
| 2026-05-07 07:11 | -11.54177 | 127.25975 | 30908 ft | 469 kts | 210° |
| 2026-05-07 07:12 | -11.56918 | 127.24228 | 30916 ft | 462 kts | 221° |
| 2026-05-07 07:12 | -11.59203 | 127.22018 | 30902 ft | 457 kts | 233° |
| 2026-05-07 07:12 | -11.62435 | 127.16504 | 30908 ft | 452 kts | 244° |
| 2026-05-07 07:13 | -11.65305 | 127.10790 | 30903 ft | 452 kts | 244° |
| 2026-05-07 07:13 | -11.68182 | 127.05088 | 30906 ft | 451 kts | 244° |
| 2026-05-07 07:14 | -11.71096 | 126.99404 | 30905 ft | 451 kts | 244° |
| 2026-05-07 07:14 | -11.74008 | 126.93770 | 30908 ft | 451 kts | 244° |
| 2026-05-07 07:15 | -11.76907 | 126.88166 | 30908 ft | 450 kts | 244° |
| 2026-05-07 07:15 | -11.79832 | 126.82507 | 30911 ft | 450 kts | 244° |
| 2026-05-07 07:16 | -11.82756 | 126.76846 | 30907 ft | 450 kts | 244° |
| 2026-05-07 07:16 | -11.85655 | 126.71228 | 30906 ft | 450 kts | 244° |
| 2026-05-07 07:17 | -11.88569 | 126.65576 | 30910 ft | 450 kts | 244° |
| 2026-05-07 07:17 | -11.91483 | 126.59921 | 30909 ft | 449 kts | 244° |
| 2026-05-07 07:18 | -11.94394 | 126.54270 | 30908 ft | 449 kts | 244° |
| 2026-05-07 07:18 | -11.97300 | 126.48625 | 30909 ft | 449 kts | 244° |
| 2026-05-07 07:19 | -12.00211 | 126.42966 | 30910 ft | 449 kts | 244° |
| 2026-05-07 07:19 | -12.03101 | 126.37347 | 30908 ft | 449 kts | 244° |
| 2026-05-07 07:20 | -12.06003 | 126.31699 | 30913 ft | 449 kts | 244° |
| 2026-05-07 07:20 | -12.08902 | 126.26052 | 30913 ft | 448 kts | 244° |
| 2026-05-07 07:21 | -12.11798 | 126.20411 | 30911 ft | 448 kts | 244° |
| 2026-05-07 07:21 | -12.14695 | 126.14761 | 30914 ft | 448 kts | 244° |
| 2026-05-07 07:22 | -12.17584 | 126.09125 | 30912 ft | 448 kts | 244° |
| 2026-05-07 07:22 | -12.20455 | 126.03520 | 30914 ft | 448 kts | 244° |
| 2026-05-07 07:23 | -12.23341 | 125.97884 | 30916 ft | 447 kts | 244° |
| 2026-05-07 07:23 | -12.26221 | 125.92255 | 30915 ft | 447 kts | 244° |
| 2026-05-07 07:24 | -12.29105 | 125.86615 | 30911 ft | 447 kts | 244° |
| 2026-05-07 07:24 | -12.31980 | 125.80988 | 30915 ft | 446 kts | 244° |
| 2026-05-07 07:25 | -12.36291 | 125.72546 | 30918 ft | 446 kts | 244° |
| 2026-05-07 07:26 | -12.39162 | 125.66919 | 30905 ft | 446 kts | 244° |
| 2026-05-07 07:26 | -12.42027 | 125.61299 | 30911 ft | 445 kts | 244° |
| 2026-05-07 07:27 | -12.44892 | 125.55677 | 30910 ft | 445 kts | 244° |
| 2026-05-07 07:27 | -12.47749 | 125.50066 | 30918 ft | 445 kts | 244° |
| 2026-05-07 07:28 | -12.50592 | 125.44480 | 30918 ft | 445 kts | 244° |
| 2026-05-07 07:28 | -12.53447 | 125.38867 | 30922 ft | 444 kts | 244° |
| 2026-05-07 07:29 | -12.56299 | 125.33256 | 30916 ft | 444 kts | 244° |
| 2026-05-07 07:29 | -12.59149 | 125.27646 | 30914 ft | 444 kts | 244° |
| 2026-05-07 07:30 | -12.61995 | 125.22040 | 30919 ft | 443 kts | 244° |
| 2026-05-07 07:30 | -12.64836 | 125.16441 | 30920 ft | 443 kts | 244° |
| 2026-05-07 07:31 | -12.67675 | 125.10841 | 30918 ft | 443 kts | 244° |
| 2026-05-07 07:31 | -12.70032 | 125.06190 | 30918 ft | 443 kts | 244° |
| 2026-05-07 07:32 | -12.72869 | 125.00586 | 30915 ft | 443 kts | 244° |
| 2026-05-07 07:32 | -12.75701 | 124.94992 | 30913 ft | 442 kts | 244° |
| 2026-05-07 07:33 | -12.78534 | 124.89390 | 30914 ft | 442 kts | 244° |
| 2026-05-07 07:33 | -12.81364 | 124.83792 | 30919 ft | 442 kts | 244° |
| 2026-05-07 07:34 | -12.84191 | 124.78195 | 30917 ft | 442 kts | 244° |
| 2026-05-07 07:34 | -12.86997 | 124.72637 | 30918 ft | 442 kts | 244° |
| 2026-05-07 07:35 | -12.89824 | 124.67033 | 30918 ft | 442 kts | 244° |
| 2026-05-07 07:35 | -12.92646 | 124.61435 | 30916 ft | 442 kts | 244° |
| 2026-05-07 07:36 | -12.95463 | 124.55844 | 30924 ft | 441 kts | 244° |
| 2026-05-07 07:36 | -12.98281 | 124.50246 | 30915 ft | 441 kts | 244° |
| 2026-05-07 07:37 | -13.01096 | 124.44652 | 30918 ft | 441 kts | 244° |
| 2026-05-07 07:37 | -13.03907 | 124.39062 | 30919 ft | 441 kts | 244° |
| 2026-05-07 07:38 | -13.06702 | 124.33500 | 30921 ft | 441 kts | 244° |
| 2026-05-07 07:38 | -13.09511 | 124.27906 | 30922 ft | 441 kts | 244° |
| 2026-05-07 07:39 | -13.12315 | 124.22319 | 30919 ft | 441 kts | 244° |
| 2026-05-07 07:39 | -13.15118 | 124.16730 | 30922 ft | 441 kts | 244° |
| 2026-05-07 07:40 | -13.17920 | 124.11139 | 30924 ft | 441 kts | 244° |
| 2026-05-07 07:40 | -13.20726 | 124.05537 | 30923 ft | 441 kts | 244° |
| 2026-05-07 07:41 | -13.23527 | 123.99940 | 30921 ft | 441 kts | 244° |
| 2026-05-07 07:41 | -13.26326 | 123.94344 | 30924 ft | 441 kts | 244° |
| 2026-05-07 07:42 | -13.29126 | 123.88743 | 30921 ft | 441 kts | 244° |
| 2026-05-07 07:42 | -13.31926 | 123.83138 | 30925 ft | 441 kts | 244° |
| 2026-05-07 07:43 | -13.34721 | 123.77538 | 30922 ft | 440 kts | 244° |
| 2026-05-07 07:43 | -13.37515 | 123.71937 | 30923 ft | 440 kts | 244° |
| 2026-05-07 07:44 | -13.40305 | 123.66340 | 30928 ft | 440 kts | 244° |
| 2026-05-07 07:44 | -13.43077 | 123.60775 | 30923 ft | 440 kts | 244° |
| 2026-05-07 07:45 | -13.45882 | 123.55139 | 30924 ft | 440 kts | 244° |
| 2026-05-07 07:45 | -13.48651 | 123.49573 | 30925 ft | 440 kts | 244° |
| 2026-05-07 07:46 | -13.52378 | 123.44611 | 30932 ft | 448 kts | 221° |
| 2026-05-07 07:46 | -13.55060 | 123.42939 | 30926 ft | 455 kts | 208° |
| 2026-05-07 07:46 | -13.58097 | 123.41940 | 30929 ft | 465 kts | 195° |
| 2026-05-07 07:46 | -13.61361 | 123.41699 | 30935 ft | 475 kts | 183° |
| 2026-05-07 07:47 | -13.64658 | 123.42277 | 30927 ft | 489 kts | 168° |
| 2026-05-07 07:47 | -13.70983 | 123.45010 | 30929 ft | 496 kts | 161° |
| 2026-05-07 07:48 | -13.77232 | 123.47994 | 30925 ft | 496 kts | 161° |
| 2026-05-07 07:48 | -13.83522 | 123.50917 | 30929 ft | 495 kts | 162° |
| 2026-05-07 07:49 | -13.89824 | 123.53775 | 30934 ft | 495 kts | 162° |
| 2026-05-07 07:49 | -13.96126 | 123.56622 | 30935 ft | 494 kts | 162° |
| 2026-05-07 07:50 | -14.02423 | 123.59475 | 30937 ft | 494 kts | 162° |
| 2026-05-07 07:50 | -14.08683 | 123.62316 | 30938 ft | 494 kts | 162° |
| 2026-05-07 07:51 | -14.14931 | 123.65303 | 30929 ft | 503 kts | 153° |
| 2026-05-07 07:51 | -14.17608 | 123.67674 | 30942 ft | 518 kts | 136° |
| 2026-05-07 07:51 | -14.19595 | 123.70816 | 30939 ft | 531 kts | 118° |
| 2026-05-07 07:51 | -14.20670 | 123.74485 | 30941 ft | 541 kts | 100° |
| 2026-05-07 07:52 | -14.20702 | 123.78370 | 30945 ft | 546 kts | 83° |
| 2026-05-07 07:52 | -14.19693 | 123.82131 | 30937 ft | 547 kts | 65° |
| 2026-05-07 07:52 | -14.17980 | 123.85628 | 30950 ft | 546 kts | 60° |
| 2026-05-07 07:53 | -14.14311 | 123.92484 | 30927 ft | 547 kts | 59° |
| 2026-05-07 07:53 | -14.10645 | 123.99350 | 30928 ft | 547 kts | 60° |
| 2026-05-07 07:54 | -14.07068 | 124.06258 | 30924 ft | 547 kts | 61° |
| 2026-05-07 07:54 | -14.03529 | 124.13193 | 30938 ft | 547 kts | 61° |
| 2026-05-07 07:55 | -13.99996 | 124.20120 | 30935 ft | 546 kts | 61° |
| 2026-05-07 07:55 | -13.96452 | 124.27046 | 30933 ft | 546 kts | 60° |
| 2026-05-07 07:56 | -13.92927 | 124.33920 | 30933 ft | 546 kts | 60° |
| 2026-05-07 07:56 | -13.89377 | 124.40832 | 30934 ft | 546 kts | 60° |
| 2026-05-07 07:57 | -13.85831 | 124.47734 | 30935 ft | 546 kts | 60° |
| 2026-05-07 07:57 | -13.82286 | 124.54629 | 30934 ft | 545 kts | 60° |
| 2026-05-07 07:58 | -13.78739 | 124.61522 | 30932 ft | 545 kts | 60° |
| 2026-05-07 07:58 | -13.75185 | 124.68422 | 30930 ft | 545 kts | 60° |
| 2026-05-07 07:59 | -13.71635 | 124.75308 | 30931 ft | 545 kts | 60° |
| 2026-05-07 07:59 | -13.68088 | 124.82184 | 30931 ft | 545 kts | 60° |
| 2026-05-07 08:00 | -13.64534 | 124.89067 | 30931 ft | 544 kts | 60° |
| 2026-05-07 08:00 | -13.60984 | 124.95937 | 30933 ft | 544 kts | 60° |
| 2026-05-07 08:01 | -13.57430 | 125.02809 | 30931 ft | 544 kts | 60° |
| 2026-05-07 08:01 | -13.53883 | 125.09659 | 30932 ft | 543 kts | 60° |
| 2026-05-07 08:02 | -13.50354 | 125.16472 | 30931 ft | 543 kts | 60° |
| 2026-05-07 08:02 | -13.46805 | 125.23316 | 30928 ft | 543 kts | 60° |
| 2026-05-07 08:03 | -13.43250 | 125.30167 | 30931 ft | 543 kts | 60° |
| 2026-05-07 08:03 | -13.39694 | 125.37015 | 30933 ft | 543 kts | 60° |
| 2026-05-07 08:04 | -13.36139 | 125.43854 | 30936 ft | 543 kts | 60° |
| 2026-05-07 08:04 | -13.32579 | 125.50698 | 30933 ft | 543 kts | 60° |
| 2026-05-07 08:05 | -13.29022 | 125.57530 | 30933 ft | 543 kts | 60° |
| 2026-05-07 08:05 | -13.25460 | 125.64368 | 30935 ft | 542 kts | 60° |
| 2026-05-07 08:06 | -13.21904 | 125.71188 | 30932 ft | 542 kts | 60° |
| 2026-05-07 08:06 | -13.18342 | 125.78012 | 30934 ft | 542 kts | 60° |
| 2026-05-07 08:07 | -13.14785 | 125.84824 | 30934 ft | 541 kts | 60° |
| 2026-05-07 08:07 | -13.11252 | 125.91583 | 30935 ft | 541 kts | 60° |
| 2026-05-07 08:08 | -13.07698 | 125.98377 | 30938 ft | 540 kts | 60° |
| 2026-05-07 08:08 | -13.04145 | 126.05163 | 30937 ft | 540 kts | 60° |
| 2026-05-07 08:09 | -13.00587 | 126.11954 | 30940 ft | 540 kts | 60° |
| 2026-05-07 08:09 | -12.97033 | 126.18732 | 30933 ft | 539 kts | 60° |
| 2026-05-07 08:10 | -12.93482 | 126.25500 | 30933 ft | 539 kts | 60° |
| 2026-05-07 08:10 | -12.89930 | 126.32263 | 30933 ft | 539 kts | 60° |
| 2026-05-07 08:11 | -12.86377 | 126.39024 | 30933 ft | 538 kts | 60° |
| 2026-05-07 08:11 | -12.82830 | 126.45768 | 30931 ft | 538 kts | 60° |
| 2026-05-07 08:12 | -12.79279 | 126.52514 | 30932 ft | 537 kts | 60° |
| 2026-05-07 08:12 | -12.75731 | 126.59249 | 30935 ft | 537 kts | 60° |
| 2026-05-07 08:13 | -12.72204 | 126.65939 | 30932 ft | 537 kts | 60° |
| 2026-05-07 08:13 | -12.68651 | 126.72675 | 30930 ft | 537 kts | 60° |
| 2026-05-07 08:14 | -12.65100 | 126.79400 | 30932 ft | 536 kts | 60° |
| 2026-05-07 08:14 | -12.61554 | 126.86113 | 30931 ft | 536 kts | 60° |
| 2026-05-07 08:15 | -12.58018 | 126.92800 | 30931 ft | 536 kts | 59° |
| 2026-05-07 08:15 | -12.54472 | 126.99501 | 30922 ft | 535 kts | 59° |
| 2026-05-07 08:16 | -12.50928 | 127.06195 | 30929 ft | 535 kts | 59° |
| 2026-05-07 08:16 | -12.47384 | 127.12882 | 30934 ft | 534 kts | 59° |
| 2026-05-07 08:17 | -12.43866 | 127.19516 | 30923 ft | 534 kts | 59° |
| 2026-05-07 08:17 | -12.40355 | 127.26133 | 30928 ft | 533 kts | 59° |
| 2026-05-07 08:18 | -12.36792 | 127.32842 | 30931 ft | 533 kts | 59° |
| 2026-05-07 08:18 | -12.33274 | 127.39461 | 30928 ft | 533 kts | 59° |
| 2026-05-07 08:19 | -12.29732 | 127.46122 | 30926 ft | 533 kts | 59° |
| 2026-05-07 08:19 | -12.26196 | 127.52767 | 30925 ft | 532 kts | 59° |
| 2026-05-07 08:20 | -12.22658 | 127.59412 | 30931 ft | 532 kts | 59° |
| 2026-05-07 08:20 | -12.19605 | 127.66300 | 30921 ft | 534 kts | 71° |
| 2026-05-07 08:21 | -12.17460 | 127.73562 | 30924 ft | 534 kts | 73° |
| 2026-05-07 08:21 | -12.15733 | 127.79606 | 30925 ft | 534 kts | 72° |
| 2026-05-07 08:22 | -12.13600 | 127.86879 | 30925 ft | 533 kts | 72° |
| 2026-05-07 08:22 | -12.11070 | 127.95299 | 30921 ft | 533 kts | 72° |
| 2026-05-07 08:23 | -12.09238 | 128.01358 | 30918 ft | 533 kts | 72° |
| 2026-05-07 08:23 | -12.07052 | 128.08590 | 30921 ft | 532 kts | 72° |
| 2026-05-07 08:24 | -12.04868 | 128.15820 | 30923 ft | 532 kts | 72° |
| 2026-05-07 08:24 | -12.02702 | 128.22988 | 30923 ft | 532 kts | 71° |
| 2026-05-07 08:25 | -12.00516 | 128.30214 | 30922 ft | 531 kts | 71° |
| 2026-05-07 08:25 | -11.98335 | 128.37417 | 30917 ft | 531 kts | 71° |
| 2026-05-07 08:26 | -11.95058 | 128.48222 | 30920 ft | 531 kts | 71° |
| 2026-05-07 08:26 | -11.92871 | 128.55427 | 30919 ft | 531 kts | 71° |
| 2026-05-07 08:27 | -11.90681 | 128.62631 | 30919 ft | 531 kts | 71° |
| 2026-05-07 08:27 | -11.88490 | 128.69832 | 30916 ft | 530 kts | 71° |
| 2026-05-07 08:28 | -11.86298 | 128.77032 | 30917 ft | 530 kts | 71° |
| 2026-05-07 08:28 | -11.84107 | 128.84219 | 30916 ft | 530 kts | 71° |
| 2026-05-07 08:29 | -11.81914 | 128.91406 | 30913 ft | 530 kts | 71° |
| 2026-05-07 08:29 | -11.79720 | 128.98588 | 30914 ft | 530 kts | 71° |
| 2026-05-07 08:30 | -11.77539 | 129.05722 | 30913 ft | 530 kts | 71° |
| 2026-05-07 08:30 | -11.75340 | 129.12907 | 30914 ft | 530 kts | 71° |
| 2026-05-07 08:31 | -11.73141 | 129.20088 | 30915 ft | 530 kts | 71° |
| 2026-05-07 08:31 | -11.70937 | 129.27273 | 30630 ft | 531 kts | 71° |
| 2026-05-07 08:32 | -11.69843 | 129.30843 | 30393 ft | 525 kts | 71° |
| 2026-05-07 08:32 | -11.68754 | 129.34391 | 30174 ft | 524 kts | 71° |
| 2026-05-07 08:32 | -11.68360 | 129.35673 | 30098 ft | 524 kts | 71° |
| 2026-05-07 08:33 | -11.67704 | 129.37810 | 29941 ft | 515 kts | 71° |
| 2026-05-07 08:33 | -11.66653 | 129.41238 | 29659 ft | 497 kts | 71° |
| 2026-05-07 08:33 | -11.65632 | 129.44566 | 29391 ft | 488 kts | 71° |
| 2026-05-07 08:34 | -11.64618 | 129.47859 | 29068 ft | 487 kts | 70° |
| 2026-05-07 08:34 | -11.63604 | 129.51152 | 28464 ft | 483 kts | 70° |
| 2026-05-07 08:34 | -11.62604 | 129.54401 | 27850 ft | 478 kts | 70° |
| 2026-05-07 08:34 | -11.61614 | 129.57615 | 27246 ft | 473 kts | 70° |
| 2026-05-07 08:35 | -11.60644 | 129.60762 | 26654 ft | 468 kts | 70° |
| 2026-05-07 08:35 | -11.59675 | 129.63907 | 26052 ft | 463 kts | 70° |
| 2026-05-07 08:35 | -11.58712 | 129.67032 | 25439 ft | 459 kts | 70° |
| 2026-05-07 08:35 | -11.57756 | 129.70129 | 24835 ft | 456 kts | 69° |
| 2026-05-07 08:36 | -11.56807 | 129.73203 | 24231 ft | 452 kts | 69° |
| 2026-05-07 08:36 | -11.55868 | 129.76245 | 23637 ft | 448 kts | 69° |
| 2026-05-07 08:36 | -11.54933 | 129.79274 | 22950 ft | 445 kts | 69° |
| 2026-05-07 08:36 | -11.54009 | 129.82262 | 22318 ft | 439 kts | 69° |
| 2026-05-07 08:37 | -11.53096 | 129.85216 | 21714 ft | 434 kts | 69° |
| 2026-05-07 08:37 | -11.52193 | 129.88137 | 21177 ft | 428 kts | 69° |
| 2026-05-07 08:37 | -11.51307 | 129.90974 | 20996 ft | 413 kts | 67° |
| 2026-05-07 08:37 | -11.49984 | 129.93519 | 20916 ft | 401 kts | 50° |
| 2026-05-07 08:38 | -11.48096 | 129.95578 | 20905 ft | 396 kts | 34° |
| 2026-05-07 08:38 | -11.45827 | 129.97064 | 20911 ft | 392 kts | 25° |
| 2026-05-07 08:38 | -11.43424 | 129.98384 | 20900 ft | 391 kts | 24° |
| 2026-05-07 08:38 | -11.41010 | 129.99672 | 20893 ft | 389 kts | 20° |
| 2026-05-07 08:39 | -11.38441 | 130.00410 | 20899 ft | 381 kts | 4° |
| 2026-05-07 08:39 | -11.35818 | 130.00410 | 20905 ft | 375 kts | 349° |
| 2026-05-07 08:39 | -11.33290 | 129.99803 | 20912 ft | 372 kts | 338° |
| 2026-05-07 08:39 | -11.30991 | 129.98641 | 20900 ft | 369 kts | 324° |
| 2026-05-07 08:40 | -11.28997 | 129.97003 | 20907 ft | 368 kts | 317° |
| 2026-05-07 08:40 | -11.27086 | 129.95271 | 20902 ft | 369 kts | 317° |
| 2026-05-07 08:40 | -11.25250 | 129.93451 | 20886 ft | 368 kts | 308° |
| 2026-05-07 08:40 | -11.23960 | 129.91207 | 20901 ft | 369 kts | 293° |
| 2026-05-07 08:41 | -11.23255 | 129.88697 | 20903 ft | 371 kts | 280° |
| 2026-05-07 08:41 | -11.23158 | 129.86065 | 20897 ft | 374 kts | 266° |
| 2026-05-07 08:41 | -11.23735 | 129.83476 | 20892 ft | 379 kts | 252° |
| 2026-05-07 08:41 | -11.25008 | 129.81116 | 20899 ft | 385 kts | 236° |
| 2026-05-07 08:42 | -11.26921 | 129.79183 | 20901 ft | 392 kts | 220° |
| 2026-05-07 08:42 | -11.29299 | 129.77879 | 20907 ft | 399 kts | 203° |
| 2026-05-07 08:42 | -11.32035 | 129.77301 | 20904 ft | 406 kts | 186° |
| 2026-05-07 08:42 | -11.34862 | 129.77567 | 20909 ft | 412 kts | 169° |
| 2026-05-07 08:43 | -11.37547 | 129.78608 | 20902 ft | 417 kts | 152° |
| 2026-05-07 08:43 | -11.39888 | 129.80369 | 20917 ft | 418 kts | 141° |
| 2026-05-07 08:43 | -11.42079 | 129.82327 | 20907 ft | 419 kts | 139° |
| 2026-05-07 08:43 | -11.44245 | 129.84318 | 20903 ft | 420 kts | 139° |
| 2026-05-07 08:44 | -11.46424 | 129.86300 | 20902 ft | 420 kts | 140° |
| 2026-05-07 08:44 | -11.48620 | 129.88257 | 20902 ft | 420 kts | 140° |
| 2026-05-07 08:44 | -11.50831 | 129.90205 | 20904 ft | 420 kts | 140° |
| 2026-05-07 08:44 | -11.52896 | 129.92301 | 20891 ft | 421 kts | 126° |
| 2026-05-07 08:45 | -11.54206 | 129.94952 | 20911 ft | 420 kts | 105° |
| 2026-05-07 08:45 | -11.54622 | 129.97875 | 20917 ft | 416 kts | 86° |
| 2026-05-07 08:45 | -11.54155 | 130.00756 | 20905 ft | 411 kts | 68° |
| 2026-05-07 08:45 | -11.52881 | 130.03321 | 20907 ft | 403 kts | 50° |
| 2026-05-07 08:46 | -11.50950 | 130.05345 | 20911 ft | 395 kts | 32° |
| 2026-05-07 08:46 | -11.48570 | 130.06670 | 20912 ft | 388 kts | 15° |
| 2026-05-07 08:46 | -11.45959 | 130.07225 | 20911 ft | 381 kts | 359° |
| 2026-05-07 08:46 | -11.43349 | 130.07008 | 20911 ft | 375 kts | 345° |
| 2026-05-07 08:47 | -11.40893 | 130.06169 | 20908 ft | 371 kts | 332° |
| 2026-05-07 08:47 | -11.38749 | 130.04732 | 20911 ft | 369 kts | 320° |
| 2026-05-07 08:47 | -11.36793 | 130.03032 | 20902 ft | 369 kts | 317° |
| 2026-05-07 08:47 | -11.34883 | 130.01291 | 20895 ft | 369 kts | 317° |
| 2026-05-07 08:48 | -11.32965 | 129.99543 | 20892 ft | 369 kts | 317° |
| 2026-05-07 08:48 | -11.31039 | 129.97815 | 20901 ft | 369 kts | 318° |
| 2026-05-07 08:48 | -11.29102 | 129.96100 | 20901 ft | 369 kts | 318° |
| 2026-05-07 08:48 | -11.27157 | 129.94388 | 20904 ft | 369 kts | 318° |
| 2026-05-07 08:49 | -11.25383 | 129.92559 | 20891 ft | 368 kts | 305° |
| 2026-05-07 08:49 | -11.24201 | 129.90256 | 20906 ft | 369 kts | 290° |
| 2026-05-07 08:49 | -11.23652 | 129.87705 | 20912 ft | 371 kts | 276° |
| 2026-05-07 08:49 | -11.23758 | 129.85074 | 20905 ft | 375 kts | 262° |
| 2026-05-07 08:50 | -11.24567 | 129.82540 | 20897 ft | 380 kts | 246° |
| 2026-05-07 08:50 | -11.26072 | 129.80312 | 20902 ft | 387 kts | 230° |
| 2026-05-07 08:50 | -11.28193 | 129.78593 | 20909 ft | 394 kts | 213° |
| 2026-05-07 08:50 | -11.30760 | 129.77572 | 20910 ft | 402 kts | 195° |
| 2026-05-07 08:51 | -11.33569 | 129.77377 | 20906 ft | 409 kts | 177° |
| 2026-05-07 08:51 | -11.36355 | 129.78043 | 20916 ft | 415 kts | 161° |
| 2026-05-07 08:51 | -11.38863 | 129.79511 | 20914 ft | 418 kts | 143° |
| 2026-05-07 08:51 | -11.41085 | 129.81429 | 20917 ft | 419 kts | 140° |
| 2026-05-07 08:52 | -11.43254 | 129.83411 | 20905 ft | 420 kts | 139° |
| 2026-05-07 08:52 | -11.45428 | 129.85401 | 20901 ft | 420 kts | 139° |
| 2026-05-07 08:52 | -11.47613 | 129.87363 | 20904 ft | 420 kts | 140° |
| 2026-05-07 08:52 | -11.49826 | 129.89320 | 20905 ft | 420 kts | 140° |
| 2026-05-07 08:53 | -11.52019 | 129.91280 | 20904 ft | 420 kts | 136° |
| 2026-05-07 08:53 | -11.53720 | 129.93695 | 20914 ft | 421 kts | 115° |
| 2026-05-07 08:53 | -11.54546 | 129.96533 | 20919 ft | 418 kts | 95° |
| 2026-05-07 08:53 | -11.54475 | 129.99474 | 20914 ft | 414 kts | 76° |
| 2026-05-07 08:54 | -11.53551 | 130.02216 | 20911 ft | 407 kts | 58° |
| 2026-05-07 08:54 | -11.51893 | 130.04512 | 20909 ft | 399 kts | 40° |
| 2026-05-07 08:54 | -11.49682 | 130.06170 | 20912 ft | 391 kts | 23° |
| 2026-05-07 08:54 | -11.47178 | 130.07070 | 20909 ft | 384 kts | 7° |
| 2026-05-07 08:55 | -11.44541 | 130.07203 | 20908 ft | 377 kts | 351° |
| 2026-05-07 08:55 | -11.42001 | 130.06631 | 20920 ft | 373 kts | 338° |
| 2026-05-07 08:55 | -11.39696 | 130.05467 | 20909 ft | 370 kts | 323° |
| 2026-05-07 08:55 | -11.37688 | 130.03838 | 20909 ft | 369 kts | 318° |
| 2026-05-07 08:56 | -11.35767 | 130.02109 | 20903 ft | 369 kts | 317° |
| 2026-05-07 08:56 | -11.33857 | 130.00360 | 20897 ft | 369 kts | 317° |
| 2026-05-07 08:56 | -11.31934 | 129.98621 | 20901 ft | 369 kts | 317° |
| 2026-05-07 08:56 | -11.30002 | 129.96901 | 20902 ft | 369 kts | 318° |
| 2026-05-07 08:57 | -11.28059 | 129.95187 | 20909 ft | 369 kts | 318° |
| 2026-05-07 08:57 | -11.26133 | 129.93462 | 20905 ft | 369 kts | 314° |
| 2026-05-07 08:57 | -11.24649 | 129.91343 | 20913 ft | 368 kts | 296° |
| 2026-05-07 08:57 | -11.23816 | 129.88880 | 20915 ft | 370 kts | 282° |
| 2026-05-07 08:58 | -11.23622 | 129.86268 | 20912 ft | 373 kts | 269° |
| 2026-05-07 08:58 | -11.24109 | 129.83664 | 20902 ft | 378 kts | 253° |
| 2026-05-07 08:58 | -11.25304 | 129.81271 | 20903 ft | 384 kts | 237° |
| 2026-05-07 08:58 | -11.27158 | 129.79298 | 20909 ft | 391 kts | 221° |
| 2026-05-07 08:59 | -11.29550 | 129.77940 | 20908 ft | 398 kts | 204° |
| 2026-05-07 08:59 | -11.32276 | 129.77356 | 20908 ft | 406 kts | 186° |
| 2026-05-07 08:59 | -11.35071 | 129.77634 | 20913 ft | 412 kts | 168° |
| 2026-05-07 08:59 | -11.37746 | 129.78722 | 20906 ft | 417 kts | 150° |
| 2026-05-07 09:00 | -11.40057 | 129.80517 | 20921 ft | 419 kts | 140° |
| 2026-05-07 09:00 | -11.42242 | 129.82481 | 20911 ft | 419 kts | 139° |
| 2026-05-07 09:00 | -11.44410 | 129.84472 | 20907 ft | 420 kts | 139° |
| 2026-05-07 09:00 | -11.46591 | 129.86450 | 20902 ft | 420 kts | 140° |
| 2026-05-07 09:01 | -11.48791 | 129.88407 | 20906 ft | 420 kts | 140° |
| 2026-05-07 09:01 | -11.50999 | 129.90352 | 20910 ft | 420 kts | 140° |
| 2026-05-07 09:01 | -11.53032 | 129.92491 | 20899 ft | 421 kts | 124° |
| 2026-05-07 09:01 | -11.54274 | 129.95175 | 20920 ft | 420 kts | 104° |
| 2026-05-07 09:02 | -11.54621 | 129.98110 | 20923 ft | 416 kts | 85° |
| 2026-05-07 09:02 | -11.54088 | 130.00977 | 20914 ft | 410 kts | 66° |
| 2026-05-07 09:02 | -11.52753 | 130.03515 | 20917 ft | 403 kts | 49° |
| 2026-05-07 09:02 | -11.50784 | 130.05487 | 20916 ft | 395 kts | 31° |
| 2026-05-07 09:03 | -11.48379 | 130.06756 | 20913 ft | 387 kts | 14° |
| 2026-05-07 09:03 | -11.45764 | 130.07253 | 20916 ft | 380 kts | 358° |
| 2026-05-07 09:03 | -11.43156 | 130.06984 | 20920 ft | 374 kts | 344° |
| 2026-05-07 09:03 | -11.40720 | 130.06105 | 20916 ft | 371 kts | 330° |
| 2026-05-07 09:04 | -11.38600 | 130.04641 | 20925 ft | 368 kts | 320° |
| 2026-05-07 09:04 | -11.36657 | 130.02943 | 20914 ft | 368 kts | 317° |
| 2026-05-07 09:04 | -11.34749 | 130.01200 | 20902 ft | 369 kts | 317° |
| 2026-05-07 09:04 | -11.32834 | 129.99455 | 20905 ft | 369 kts | 317° |
| 2026-05-07 09:05 | -11.30932 | 129.97749 | 20907 ft | 369 kts | 318° |
| 2026-05-07 09:05 | -11.28995 | 129.96035 | 20909 ft | 369 kts | 318° |
| 2026-05-07 09:05 | -11.27050 | 129.94322 | 20910 ft | 369 kts | 318° |
| 2026-05-07 09:05 | -11.25278 | 129.92447 | 20902 ft | 368 kts | 304° |
| 2026-05-07 09:06 | -11.24133 | 129.90118 | 20911 ft | 369 kts | 289° |
| 2026-05-07 09:06 | -11.23622 | 129.87561 | 20917 ft | 371 kts | 275° |
| 2026-05-07 09:06 | -11.23768 | 129.84932 | 20916 ft | 375 kts | 261° |
| 2026-05-07 09:06 | -11.24616 | 129.82410 | 20910 ft | 381 kts | 245° |
| 2026-05-07 09:07 | -11.26160 | 129.80202 | 20911 ft | 387 kts | 229° |
| 2026-05-07 09:07 | -11.28305 | 129.78521 | 20912 ft | 395 kts | 212° |
| 2026-05-07 09:07 | -11.30895 | 129.77539 | 20909 ft | 402 kts | 194° |
| 2026-05-07 09:07 | -11.33708 | 129.77389 | 20910 ft | 410 kts | 176° |
| 2026-05-07 09:08 | -11.36485 | 129.78095 | 20922 ft | 415 kts | 160° |
| 2026-05-07 09:08 | -11.38970 | 129.79595 | 20918 ft | 418 kts | 142° |
| 2026-05-07 09:08 | -11.41187 | 129.81518 | 20919 ft | 419 kts | 140° |
| 2026-05-07 09:08 | -11.43358 | 129.83504 | 20909 ft | 420 kts | 139° |
| 2026-05-07 09:09 | -11.45527 | 129.85490 | 20905 ft | 420 kts | 139° |
| 2026-05-07 09:09 | -11.47716 | 129.87455 | 20908 ft | 420 kts | 140° |
| 2026-05-07 09:09 | -11.49922 | 129.89405 | 20909 ft | 420 kts | 140° |
| 2026-05-07 09:09 | -11.52115 | 129.91377 | 20907 ft | 420 kts | 135° |
| 2026-05-07 09:10 | -11.53776 | 129.93815 | 20918 ft | 421 kts | 114° |
| 2026-05-07 09:10 | -11.54557 | 129.96624 | 20920 ft | 418 kts | 94° |
| 2026-05-07 09:10 | -11.54459 | 129.99561 | 20920 ft | 413 kts | 76° |
| 2026-05-07 09:10 | -11.53511 | 130.02294 | 20915 ft | 407 kts | 58° |
| 2026-05-07 09:11 | -11.51839 | 130.04567 | 20919 ft | 399 kts | 40° |
| 2026-05-07 09:11 | -11.49613 | 130.06208 | 20921 ft | 391 kts | 22° |
| 2026-05-07 09:11 | -11.47959 | 130.06879 | 20914 ft | 386 kts | 12° |
| 2026-05-07 09:11 | -11.45328 | 130.07246 | 20918 ft | 379 kts | 355° |
| 2026-05-07 09:12 | -11.41902 | 130.06597 | 20921 ft | 373 kts | 338° |
| 2026-05-07 09:12 | -11.39606 | 130.05405 | 20909 ft | 370 kts | 323° |
| 2026-05-07 09:12 | -11.38267 | 130.04339 | 20917 ft | 369 kts | 319° |
| 2026-05-07 09:12 | -11.36332 | 130.02625 | 20911 ft | 369 kts | 317° |
| 2026-05-07 09:13 | -11.34422 | 130.00878 | 20908 ft | 369 kts | 317° |
| 2026-05-07 09:13 | -11.32510 | 129.99140 | 20910 ft | 369 kts | 317° |
| 2026-05-07 09:13 | -11.30576 | 129.97411 | 20909 ft | 369 kts | 318° |
| 2026-05-07 09:13 | -11.28637 | 129.95697 | 20911 ft | 369 kts | 318° |
| 2026-05-07 09:14 | -11.26693 | 129.93986 | 20913 ft | 369 kts | 317° |
| 2026-05-07 09:14 | -11.25017 | 129.92019 | 20910 ft | 368 kts | 301° |
| 2026-05-07 09:14 | -11.23996 | 129.89634 | 20916 ft | 369 kts | 286° |
| 2026-05-07 09:14 | -11.23610 | 129.87048 | 20921 ft | 372 kts | 273° |
| 2026-05-07 09:15 | -11.23890 | 129.84426 | 20908 ft | 376 kts | 258° |
| 2026-05-07 09:15 | -11.24877 | 129.81945 | 20911 ft | 382 kts | 242° |
| 2026-05-07 09:15 | -11.26549 | 129.79824 | 20915 ft | 389 kts | 226° |
| 2026-05-07 09:15 | -11.28798 | 129.78266 | 20916 ft | 396 kts | 208° |
| 2026-05-07 09:16 | -11.31450 | 129.77441 | 20915 ft | 404 kts | 191° |
| 2026-05-07 09:16 | -11.34275 | 129.77467 | 20911 ft | 411 kts | 173° |
| 2026-05-07 09:16 | -11.37019 | 129.78330 | 20919 ft | 416 kts | 156° |
| 2026-05-07 09:16 | -11.39428 | 129.79975 | 20927 ft | 418 kts | 141° |
| 2026-05-07 09:17 | -11.41631 | 129.81919 | 20919 ft | 419 kts | 139° |
| 2026-05-07 09:17 | -11.43798 | 129.83908 | 20911 ft | 420 kts | 139° |
| 2026-05-07 09:17 | -11.45945 | 129.85868 | 20911 ft | 420 kts | 140° |
| 2026-05-07 09:17 | -11.48139 | 129.87831 | 20909 ft | 420 kts | 140° |
| 2026-05-07 09:18 | -11.50349 | 129.89781 | 20912 ft | 420 kts | 140° |
| 2026-05-07 09:18 | -11.52495 | 129.91797 | 20904 ft | 421 kts | 130° |
| 2026-05-07 09:18 | -11.53994 | 129.94348 | 20921 ft | 420 kts | 110° |
| 2026-05-07 09:18 | -11.54609 | 129.97241 | 20931 ft | 417 kts | 90° |
| 2026-05-07 09:19 | -11.54330 | 130.00155 | 20919 ft | 412 kts | 72° |
| 2026-05-07 09:19 | -11.53218 | 130.02815 | 20922 ft | 405 kts | 54° |
| 2026-05-07 09:19 | -11.51410 | 130.04972 | 20919 ft | 397 kts | 36° |
| 2026-05-07 09:19 | -11.49106 | 130.06456 | 20919 ft | 389 kts | 19° |
| 2026-05-07 09:20 | -11.46526 | 130.07178 | 20919 ft | 382 kts | 3° |
| 2026-05-07 09:20 | -11.43900 | 130.07120 | 20921 ft | 376 kts | 347° |
| 2026-05-07 09:20 | -11.41400 | 130.06404 | 20926 ft | 372 kts | 335° |
| 2026-05-07 09:20 | -11.39178 | 130.05088 | 20919 ft | 369 kts | 321° |
| 2026-05-07 09:21 | -11.37207 | 130.03419 | 20912 ft | 369 kts | 317° |
| 2026-05-07 09:21 | -11.35293 | 130.01680 | 20913 ft | 369 kts | 317° |
| 2026-05-07 09:21 | -11.33383 | 129.99933 | 20912 ft | 369 kts | 317° |
| 2026-05-07 09:21 | -11.31484 | 129.98221 | 20911 ft | 369 kts | 317° |
| 2026-05-07 09:22 | -11.29518 | 129.96477 | 20913 ft | 369 kts | 318° |
| 2026-05-07 09:22 | -11.27604 | 129.94790 | 20914 ft | 369 kts | 318° |
| 2026-05-07 09:22 | -11.25724 | 129.93013 | 20903 ft | 369 kts | 309° |
| 2026-05-07 09:22 | -11.24398 | 129.90790 | 20918 ft | 368 kts | 293° |
| 2026-05-07 09:23 | -11.23711 | 129.88275 | 20922 ft | 370 kts | 279° |
| 2026-05-07 09:23 | -11.23670 | 129.85651 | 20922 ft | 374 kts | 265° |
| 2026-05-07 09:23 | -11.24325 | 129.83073 | 20911 ft | 379 kts | 250° |
| 2026-05-07 09:23 | -11.25684 | 129.80759 | 20913 ft | 385 kts | 233° |
| 2026-05-07 09:24 | -11.27679 | 129.78915 | 20919 ft | 393 kts | 217° |
| 2026-05-07 09:24 | -11.30171 | 129.77727 | 20913 ft | 400 kts | 199° |
| 2026-05-07 09:24 | -11.32945 | 129.77343 | 20915 ft | 408 kts | 181° |
| 2026-05-07 09:24 | -11.35752 | 129.77828 | 20920 ft | 413 kts | 164° |
| 2026-05-07 09:25 | -11.38347 | 129.79118 | 20910 ft | 418 kts | 146° |
| 2026-05-07 09:25 | -11.40604 | 129.80999 | 20926 ft | 419 kts | 140° |
| 2026-05-07 09:25 | -11.42785 | 129.82980 | 20916 ft | 419 kts | 139° |
| 2026-05-07 09:25 | -11.44954 | 129.84970 | 20908 ft | 420 kts | 139° |
| 2026-05-07 09:26 | -11.47139 | 129.86940 | 20911 ft | 420 kts | 140° |
| 2026-05-07 09:26 | -11.49342 | 129.88893 | 20915 ft | 420 kts | 140° |
| 2026-05-07 09:26 | -11.51551 | 129.90841 | 20915 ft | 420 kts | 139° |
| 2026-05-07 09:26 | -11.53415 | 129.93123 | 20912 ft | 421 kts | 119° |
| 2026-05-07 09:27 | -11.54440 | 129.95899 | 20922 ft | 419 kts | 99° |
| 2026-05-07 09:27 | -11.54565 | 129.98843 | 20927 ft | 415 kts | 81° |
| 2026-05-07 09:27 | -11.52310 | 130.04060 | 20921 ft | 401 kts | 44° |
| 2026-05-07 09:28 | -11.50208 | 130.05867 | 20921 ft | 393 kts | 27° |
| 2026-05-07 09:28 | -11.47727 | 130.06943 | 20924 ft | 385 kts | 10° |
| 2026-05-07 09:28 | -11.45096 | 130.07240 | 20920 ft | 379 kts | 354° |
| 2026-05-07 09:28 | -11.42550 | 130.06808 | 20930 ft | 374 kts | 341° |
| 2026-05-07 09:29 | -11.40174 | 130.05779 | 20916 ft | 370 kts | 327° |
| 2026-05-07 09:29 | -11.38123 | 130.04210 | 20920 ft | 368 kts | 319° |
| 2026-05-07 09:29 | -11.36193 | 130.02493 | 20917 ft | 369 kts | 317° |
| 2026-05-07 09:29 | -11.34277 | 130.00741 | 20914 ft | 369 kts | 317° |
| 2026-05-07 09:30 | -11.32359 | 129.99002 | 20913 ft | 369 kts | 317° |
| 2026-05-07 09:30 | -11.30430 | 129.97280 | 20913 ft | 369 kts | 318° |
| 2026-05-07 09:30 | -11.28488 | 129.95565 | 20910 ft | 369 kts | 318° |
| 2026-05-07 09:30 | -11.26544 | 129.93852 | 20914 ft | 369 kts | 317° |
| 2026-05-07 09:31 | -11.24917 | 129.91850 | 20916 ft | 368 kts | 300° |
| 2026-05-07 09:31 | -11.23944 | 129.89442 | 20919 ft | 369 kts | 285° |
| 2026-05-07 09:31 | -11.23607 | 129.86848 | 20927 ft | 372 kts | 271° |
| 2026-05-07 09:31 | -11.23941 | 129.84224 | 20920 ft | 377 kts | 257° |
| 2026-05-07 09:32 | -11.24982 | 129.81768 | 20915 ft | 382 kts | 241° |
| 2026-05-07 09:32 | -11.26703 | 129.79681 | 20917 ft | 389 kts | 225° |
| 2026-05-07 09:32 | -11.28987 | 129.78176 | 20919 ft | 397 kts | 207° |
| 2026-05-07 09:32 | -11.31660 | 129.77412 | 20920 ft | 404 kts | 190° |
| 2026-05-07 09:33 | -11.34457 | 129.77500 | 20919 ft | 411 kts | 172° |
| 2026-05-07 09:33 | -11.37184 | 129.78411 | 20919 ft | 416 kts | 155° |
| 2026-05-07 09:33 | -11.39568 | 129.80096 | 20934 ft | 418 kts | 141° |
| 2026-05-07 09:33 | -11.41763 | 129.82041 | 20922 ft | 419 kts | 139° |
| 2026-05-07 09:34 | -11.43935 | 129.84035 | 20917 ft | 420 kts | 139° |
| 2026-05-07 09:34 | -11.46112 | 129.86019 | 20912 ft | 420 kts | 140° |
| 2026-05-07 09:34 | -11.48308 | 129.87979 | 20913 ft | 420 kts | 140° |
| 2026-05-07 09:34 | -11.50520 | 129.89931 | 20917 ft | 420 kts | 140° |
| 2026-05-07 09:35 | -11.52641 | 129.91971 | 20909 ft | 421 kts | 129° |
| 2026-05-07 09:35 | -11.54076 | 129.94560 | 20927 ft | 420 kts | 108° |
| 2026-05-07 09:35 | -11.54621 | 129.97464 | 20934 ft | 417 kts | 89° |
| 2026-05-07 09:35 | -11.54275 | 130.00375 | 20921 ft | 412 kts | 71° |
| 2026-05-07 09:36 | -11.53106 | 130.03002 | 20923 ft | 405 kts | 52° |
| 2026-05-07 09:36 | -11.51258 | 130.05112 | 20931 ft | 397 kts | 35° |
| 2026-05-07 09:36 | -11.48921 | 130.06545 | 20921 ft | 389 kts | 18° |
| 2026-05-07 09:36 | -11.46337 | 130.07210 | 20922 ft | 382 kts | 2° |
| 2026-05-07 09:37 | -11.43702 | 130.07194 | 20931 ft | 378 kts | 356° |
| 2026-05-07 09:37 | -11.41086 | 130.07612 | 20919 ft | 387 kts | 15° |
| 2026-05-07 09:37 | -11.38709 | 130.08927 | 20921 ft | 395 kts | 35° |
| 2026-05-07 09:37 | -11.36841 | 130.11007 | 20920 ft | 406 kts | 54° |
| 2026-05-07 09:38 | -11.35657 | 130.13651 | 20931 ft | 427 kts | 72° |
| 2026-05-07 09:38 | -11.35275 | 130.16714 | 20934 ft | 447 kts | 90° |
| 2026-05-07 09:38 | -11.35789 | 130.19880 | 20924 ft | 462 kts | 107° |
| 2026-05-07 09:38 | -11.37158 | 130.22882 | 20928 ft | 473 kts | 122° |
| 2026-05-07 09:39 | -11.39261 | 130.25484 | 20924 ft | 481 kts | 137° |
| 2026-05-07 09:39 | -11.41987 | 130.27480 | 20917 ft | 485 kts | 154° |
| 2026-05-07 09:39 | -11.45155 | 130.28657 | 20918 ft | 486 kts | 171° |
| 2026-05-07 09:39 | -11.48510 | 130.28956 | 20933 ft | 482 kts | 184° |
| 2026-05-07 09:40 | -11.51844 | 130.28702 | 20925 ft | 479 kts | 189° |
| 2026-05-07 09:40 | -11.55109 | 130.28235 | 20677 ft | 463 kts | 192° |
| 2026-05-07 09:40 | -11.58189 | 130.27641 | 20533 ft | 439 kts | 196° |
| 2026-05-07 09:40 | -11.61146 | 130.27107 | 19930 ft | 431 kts | 190° |
| 2026-05-07 09:41 | -11.64149 | 130.26819 | 19024 ft | 433 kts | 187° |
| 2026-05-07 09:41 | -11.67148 | 130.26606 | 18251 ft | 430 kts | 187° |
| 2026-05-07 09:41 | -11.70112 | 130.26377 | 17423 ft | 425 kts | 188° |
| 2026-05-07 09:41 | -11.73039 | 130.26111 | 16675 ft | 418 kts | 188° |
| 2026-05-07 09:42 | -11.75902 | 130.25817 | 15967 ft | 411 kts | 188° |
| 2026-05-07 09:42 | -11.78718 | 130.25509 | 15400 ft | 402 kts | 188° |
| 2026-05-07 09:42 | -11.81442 | 130.25208 | 15203 ft | 384 kts | 188° |
| 2026-05-07 09:42 | -11.84034 | 130.24923 | 14967 ft | 368 kts | 188° |
| 2026-05-07 09:43 | -11.86585 | 130.24641 | 14128 ft | 370 kts | 188° |
| 2026-05-07 09:43 | -11.89115 | 130.24705 | 13148 ft | 371 kts | 169° |
| 2026-05-07 09:43 | -11.91511 | 130.25657 | 12177 ft | 370 kts | 149° |
| 2026-05-07 09:43 | -11.93537 | 130.27250 | 11300 ft | 365 kts | 141° |
| 2026-05-07 09:44 | -11.95440 | 130.28936 | 10540 ft | 358 kts | 139° |
| 2026-05-07 09:44 | -11.97235 | 130.30553 | 10422 ft | 331 kts | 139° |
| 2026-05-07 09:44 | -11.98908 | 130.32054 | 10269 ft | 310 kts | 140° |
| 2026-05-07 09:44 | -12.00488 | 130.33457 | 10137 ft | 292 kts | 140° |
| 2026-05-07 09:45 | -12.01990 | 130.34782 | 10019 ft | 281 kts | 140° |
| 2026-05-07 09:45 | -12.03458 | 130.36072 | 9868 ft | 277 kts | 140° |
| 2026-05-07 09:45 | -12.04944 | 130.37374 | 9543 ft | 285 kts | 140° |
| 2026-05-07 09:45 | -12.06443 | 130.38687 | 9215 ft | 283 kts | 140° |
| 2026-05-07 09:46 | -12.07929 | 130.39988 | 8896 ft | 280 kts | 139° |
| 2026-05-07 09:46 | -12.09405 | 130.41279 | 8573 ft | 278 kts | 139° |
| 2026-05-07 09:46 | -12.10870 | 130.42562 | 8244 ft | 276 kts | 139° |
| 2026-05-07 09:46 | -12.12323 | 130.43834 | 7946 ft | 274 kts | 139° |
| 2026-05-07 09:47 | -12.13757 | 130.45090 | 7655 ft | 271 kts | 139° |
| 2026-05-07 09:47 | -12.15182 | 130.46338 | 7336 ft | 269 kts | 139° |
| 2026-05-07 09:47 | -12.16597 | 130.47578 | 7018 ft | 267 kts | 138° |
| 2026-05-07 09:47 | -12.18004 | 130.48811 | 6707 ft | 265 kts | 138° |
| 2026-05-07 09:48 | -12.19397 | 130.50032 | 6378 ft | 264 kts | 138° |
| 2026-05-07 09:48 | -12.20785 | 130.51248 | 6045 ft | 262 kts | 138° |
| 2026-05-07 09:48 | -12.22168 | 130.52460 | 5705 ft | 261 kts | 138° |
| 2026-05-07 09:48 | -12.23440 | 130.53763 | 5371 ft | 258 kts | 128° |
| 2026-05-07 09:49 | -12.24512 | 130.55231 | 5058 ft | 256 kts | 124° |
| 2026-05-07 09:49 | -12.25518 | 130.56693 | 4751 ft | 254 kts | 124° |
| 2026-05-07 09:49 | -12.26535 | 130.58170 | 4423 ft | 253 kts | 124° |
| 2026-05-07 09:49 | -12.27548 | 130.59629 | 4103 ft | 251 kts | 125° |
| 2026-05-07 09:50 | -12.28547 | 130.61054 | 3980 ft | 242 kts | 126° |
| 2026-05-07 09:50 | -12.29512 | 130.62423 | 3863 ft | 233 kts | 126° |
| 2026-05-07 09:50 | -12.30446 | 130.63743 | 3755 ft | 225 kts | 126° |
| 2026-05-07 09:50 | -12.31347 | 130.65012 | 3669 ft | 217 kts | 126° |
| 2026-05-07 09:51 | -12.32218 | 130.66237 | 3570 ft | 209 kts | 126° |
| 2026-05-07 09:51 | -12.33056 | 130.67416 | 3480 ft | 201 kts | 126° |
| 2026-05-07 09:51 | -12.33863 | 130.68550 | 3403 ft | 193 kts | 126° |
| 2026-05-07 09:51 | -12.34650 | 130.69656 | 3229 ft | 191 kts | 126° |
| 2026-05-07 09:52 | -12.35416 | 130.70732 | 3075 ft | 184 kts | 126° |
| 2026-05-07 09:52 | -12.36036 | 130.71855 | 2855 ft | 180 kts | 110° |
| 2026-05-07 09:52 | -12.36414 | 130.73043 | 2668 ft | 176 kts | 111° |
| 2026-05-07 09:52 | -12.36810 | 130.74200 | 2478 ft | 170 kts | 111° |
| 2026-05-07 09:53 | -12.37198 | 130.75328 | 2285 ft | 166 kts | 111° |
| 2026-05-07 09:53 | -12.37577 | 130.76428 | 2071 ft | 162 kts | 112° |
| 2026-05-07 09:53 | -12.37947 | 130.77505 | 1859 ft | 159 kts | 111° |
| 2026-05-07 09:53 | -12.38297 | 130.78555 | 1672 ft | 151 kts | 111° |
| 2026-05-07 09:54 | -12.38624 | 130.79542 | 1472 ft | 142 kts | 110° |
| 2026-05-07 09:54 | -12.38928 | 130.80460 | 1312 ft | 132 kts | 110° |
| 2026-05-07 09:54 | -12.39217 | 130.81330 | 1153 ft | 127 kts | 111° |
| 2026-05-07 09:54 | -12.39498 | 130.82179 | 987 ft | 126 kts | 112° |
| 2026-05-07 09:55 | -12.39786 | 130.83041 | 834 ft | 129 kts | 110° |
| 2026-05-07 09:55 | -12.40076 | 130.83927 | 707 ft | 133 kts | 109° |
| 2026-05-07 09:55 | -12.40382 | 130.84837 | 469 ft | 136 kts | 109° |
| 2026-05-07 09:55 | -12.40684 | 130.85750 | 310 ft | 134 kts | 108° |
| 2026-05-07 09:56 | -12.40974 | 130.86632 | 108 ft | 129 kts | 109° |
| 2026-05-07 09:56 | -12.41241 | 130.87421 | 91 ft | 101 kts | 108° |
| 2026-05-07 09:56 | -12.41394 | 130.87877 | 90 ft | 25 kts | 109° |
| 2026-05-07 09:56 | -12.41514 | 130.87951 | 90 ft | 22 kts | 187° |
| 2026-05-07 09:57 | -12.41662 | 130.87937 | 89 ft | 22 kts | 159° |
| 2026-05-07 09:57 | -12.41786 | 130.87969 | 89 ft | 13 kts | 199° |
| 2026-05-07 09:57 | -12.41840 | 130.87999 | 90 ft | 10 kts | 120° |
| 2026-05-07 09:57 | -12.41856 | 130.88026 | 89 ft | 2 kts | 124° |
| 2026-05-07 09:58 | -12.41855 | 130.88042 | 90 ft | 2 kts | 44° |
| 2026-05-07 09:58 | -12.41844 | 130.88045 | 91 ft | 0 kts | 19° |